<?xml version="1.0" encoding="utf-8"?>
<gpx xmlns:xsi="http://www.w3.org/2001/XMLSchema-instance" xmlns:xsd="http://www.w3.org/2001/XMLSchema" version="1.1" creator="Shapelink.com" xmlns="http://www.topografix.com/GPX/1/1" xmlns:gpxtpx="http://www.garmin.com/xmlschemas/TrackPointExtension/v1">
  <metadata>
    <name>Ejecutar 10.00 km, 2020-02-01</name>
    <desc></desc>
    <author><name>Per Rooth</name></author> 
    <time>2020-02-01T10:29:39Z</time>
  </metadata>
  <trk>
    <name>Ejecutar 10.00 km, 2020-02-01</name>
    <trkseg>
      <trkpt lat="56.908840564049" lon="14.886949091872">
        <ele>165.6</ele>
        <time>2020-02-01T10:29:39Z</time>
      </trkpt>
      <trkpt lat="56.908841234601" lon="14.887032156501">
        <ele>166</ele>
        <time>2020-02-01T10:29:41Z</time>
      </trkpt>
      <trkpt lat="56.908846263741" lon="14.88711941208">
        <ele>164.4</ele>
        <time>2020-02-01T10:29:43Z</time>
      </trkpt>
      <trkpt lat="56.9089016681" lon="14.887478576495">
        <ele>165.4</ele>
        <time>2020-02-01T10:29:50Z</time>
      </trkpt>
      <trkpt lat="56.908968052748" lon="14.887824665146">
        <ele>164.6</ele>
        <time>2020-02-01T10:29:57Z</time>
      </trkpt>
      <trkpt lat="56.908977356657" lon="14.887874788908">
        <ele>164.2</ele>
        <time>2020-02-01T10:29:58Z</time>
      </trkpt>
      <trkpt lat="56.909001496529" lon="14.888207215062">
        <ele>164.2</ele>
        <time>2020-02-01T10:30:05Z</time>
      </trkpt>
      <trkpt lat="56.909028905342" lon="14.888350964647">
        <ele>165.2</ele>
        <time>2020-02-01T10:30:08Z</time>
      </trkpt>
      <trkpt lat="56.909113311075" lon="14.888689844864">
        <ele>164.2</ele>
        <time>2020-02-01T10:30:15Z</time>
      </trkpt>
      <trkpt lat="56.90918916727" lon="14.889029311814">
        <ele>164.2</ele>
        <time>2020-02-01T10:30:22Z</time>
      </trkpt>
      <trkpt lat="56.909245828914" lon="14.889385374926">
        <ele>164.2</ele>
        <time>2020-02-01T10:30:29Z</time>
      </trkpt>
      <trkpt lat="56.90930148473" lon="14.889719309822">
        <ele>164.2</ele>
        <time>2020-02-01T10:30:36Z</time>
      </trkpt>
      <trkpt lat="56.909311291553" lon="14.889819389708">
        <ele>164.2</ele>
        <time>2020-02-01T10:30:38Z</time>
      </trkpt>
      <trkpt lat="56.909280613799" lon="14.890159946305">
        <ele>163.4</ele>
        <time>2020-02-01T10:30:45Z</time>
      </trkpt>
      <trkpt lat="56.909191095107" lon="14.890454150995">
        <ele>163.4</ele>
        <time>2020-02-01T10:30:52Z</time>
      </trkpt>
      <trkpt lat="56.909121692975" lon="14.890729077315">
        <ele>163.4</ele>
        <time>2020-02-01T10:30:59Z</time>
      </trkpt>
      <trkpt lat="56.909078107095" lon="14.890882968999">
        <ele>163.6</ele>
        <time>2020-02-01T10:31:05Z</time>
      </trkpt>
      <trkpt lat="56.909077436543" lon="14.890894033107">
        <ele>163.6</ele>
        <time>2020-02-01T10:31:07Z</time>
      </trkpt>
      <trkpt lat="56.909075005792" lon="14.890929991458">
        <ele>163.6</ele>
        <time>2020-02-01T10:31:10Z</time>
      </trkpt>
      <trkpt lat="56.908991270611" lon="14.891160745165">
        <ele>163.8</ele>
        <time>2020-02-01T10:31:19Z</time>
      </trkpt>
      <trkpt lat="56.90889496258" lon="14.891333077029">
        <ele>163</ele>
        <time>2020-02-01T10:31:24Z</time>
      </trkpt>
      <trkpt lat="56.908774011763" lon="14.891504319246">
        <ele>163</ele>
        <time>2020-02-01T10:31:29Z</time>
      </trkpt>
      <trkpt lat="56.908748111692" lon="14.891647482098">
        <ele>164.2</ele>
        <time>2020-02-01T10:31:33Z</time>
      </trkpt>
      <trkpt lat="56.908736041756" lon="14.891680506784">
        <ele>165</ele>
        <time>2020-02-01T10:31:34Z</time>
      </trkpt>
      <trkpt lat="56.908725229105" lon="14.891712441823">
        <ele>165.6</ele>
        <time>2020-02-01T10:31:35Z</time>
      </trkpt>
      <trkpt lat="56.908705447821" lon="14.891771953313">
        <ele>166.8</ele>
        <time>2020-02-01T10:31:37Z</time>
      </trkpt>
      <trkpt lat="56.908681307949" lon="14.891851497544">
        <ele>168</ele>
        <time>2020-02-01T10:31:40Z</time>
      </trkpt>
      <trkpt lat="56.908651384566" lon="14.891939423675">
        <ele>169</ele>
        <time>2020-02-01T10:31:43Z</time>
      </trkpt>
      <trkpt lat="56.908613163102" lon="14.89209909887">
        <ele>170.2</ele>
        <time>2020-02-01T10:31:48Z</time>
      </trkpt>
      <trkpt lat="56.908604613564" lon="14.892129776624">
        <ele>170.6</ele>
        <time>2020-02-01T10:31:49Z</time>
      </trkpt>
      <trkpt lat="56.908591118705" lon="14.892158442722">
        <ele>171.4</ele>
        <time>2020-02-01T10:31:50Z</time>
      </trkpt>
      <trkpt lat="56.908569828679" lon="14.892225917017">
        <ele>172.6</ele>
        <time>2020-02-01T10:31:52Z</time>
      </trkpt>
      <trkpt lat="56.908515346329" lon="14.892521965725">
        <ele>173.6</ele>
        <time>2020-02-01T10:31:59Z</time>
      </trkpt>
      <trkpt lat="56.908496906149" lon="14.89255591242">
        <ele>174.2</ele>
        <time>2020-02-01T10:32:00Z</time>
      </trkpt>
      <trkpt lat="56.908469748793" lon="14.892582902138">
        <ele>174.6</ele>
        <time>2020-02-01T10:32:01Z</time>
      </trkpt>
      <trkpt lat="56.908458936142" lon="14.892621710335">
        <ele>175.2</ele>
        <time>2020-02-01T10:32:02Z</time>
      </trkpt>
      <trkpt lat="56.908392551494" lon="14.89282664779">
        <ele>176.2</ele>
        <time>2020-02-01T10:32:08Z</time>
      </trkpt>
      <trkpt lat="56.908345864311" lon="14.892982132035">
        <ele>176.8</ele>
        <time>2020-02-01T10:32:12Z</time>
      </trkpt>
      <trkpt lat="56.908333459099" lon="14.893062765913">
        <ele>177.2</ele>
        <time>2020-02-01T10:32:14Z</time>
      </trkpt>
      <trkpt lat="56.908321472982" lon="14.893223530755">
        <ele>178.6</ele>
        <time>2020-02-01T10:32:18Z</time>
      </trkpt>
      <trkpt lat="56.908294650902" lon="14.893374740231">
        <ele>180</ele>
        <time>2020-02-01T10:32:22Z</time>
      </trkpt>
      <trkpt lat="56.908211921549" lon="14.893705238548">
        <ele>179</ele>
        <time>2020-02-01T10:32:30Z</time>
      </trkpt>
      <trkpt lat="56.908200019251" lon="14.893766845513">
        <ele>179.4</ele>
        <time>2020-02-01T10:32:32Z</time>
      </trkpt>
      <trkpt lat="56.908198845785" lon="14.893795176335">
        <ele>179.8</ele>
        <time>2020-02-01T10:32:34Z</time>
      </trkpt>
      <trkpt lat="56.908212592101" lon="14.893822668967">
        <ele>179.8</ele>
        <time>2020-02-01T10:32:37Z</time>
      </trkpt>
      <trkpt lat="56.908147883833" lon="14.893894250393">
        <ele>179.6</ele>
        <time>2020-02-01T10:32:44Z</time>
      </trkpt>
      <trkpt lat="56.90806934543" lon="14.893982679438">
        <ele>180.2</ele>
        <time>2020-02-01T10:32:48Z</time>
      </trkpt>
      <trkpt lat="56.908038667676" lon="14.894046800973">
        <ele>181</ele>
        <time>2020-02-01T10:32:50Z</time>
      </trkpt>
      <trkpt lat="56.908030621052" lon="14.894310998461">
        <ele>180</ele>
        <time>2020-02-01T10:32:56Z</time>
      </trkpt>
      <trkpt lat="56.907978234177" lon="14.894456675883">
        <ele>179</ele>
        <time>2020-02-01T10:33:00Z</time>
      </trkpt>
      <trkpt lat="56.907834316954" lon="14.89461785982">
        <ele>177.8</ele>
        <time>2020-02-01T10:33:08Z</time>
      </trkpt>
      <trkpt lat="56.907711354481" lon="14.894692794006">
        <ele>176.6</ele>
        <time>2020-02-01T10:33:14Z</time>
      </trkpt>
      <trkpt lat="56.907670450809" lon="14.894711820919">
        <ele>176.6</ele>
        <time>2020-02-01T10:33:16Z</time>
      </trkpt>
      <trkpt lat="56.907578249909" lon="14.894740989931">
        <ele>175.4</ele>
        <time>2020-02-01T10:33:20Z</time>
      </trkpt>
      <trkpt lat="56.907451431762" lon="14.894805949656">
        <ele>174.2</ele>
        <time>2020-02-01T10:33:25Z</time>
      </trkpt>
      <trkpt lat="56.907361326337" lon="14.894851211916">
        <ele>173.2</ele>
        <time>2020-02-01T10:33:29Z</time>
      </trkpt>
      <trkpt lat="56.907335677723" lon="14.894867305164">
        <ele>173</ele>
        <time>2020-02-01T10:33:30Z</time>
      </trkpt>
      <trkpt lat="56.907146749697" lon="14.894904939895">
        <ele>172.2</ele>
        <time>2020-02-01T10:33:37Z</time>
      </trkpt>
      <trkpt lat="56.907092770261" lon="14.894908208836">
        <ele>172</ele>
        <time>2020-02-01T10:33:39Z</time>
      </trkpt>
      <trkpt lat="56.906888419539" lon="14.894967636507">
        <ele>171.2</ele>
        <time>2020-02-01T10:33:46Z</time>
      </trkpt>
      <trkpt lat="56.906807115109" lon="14.895026980359">
        <ele>171</ele>
        <time>2020-02-01T10:33:49Z</time>
      </trkpt>
      <trkpt lat="56.906642159317" lon="14.895195121273">
        <ele>170.4</ele>
        <time>2020-02-01T10:33:55Z</time>
      </trkpt>
      <trkpt lat="56.906529338943" lon="14.895328058207">
        <ele>170.2</ele>
        <time>2020-02-01T10:34:00Z</time>
      </trkpt>
      <trkpt lat="56.906375111983" lon="14.895507430867">
        <ele>170.2</ele>
        <time>2020-02-01T10:34:07Z</time>
      </trkpt>
      <trkpt lat="56.90626639874" lon="14.895653275927">
        <ele>169.8</ele>
        <time>2020-02-01T10:34:11Z</time>
      </trkpt>
      <trkpt lat="56.906118374386" lon="14.895897692131">
        <ele>170</ele>
        <time>2020-02-01T10:34:18Z</time>
      </trkpt>
      <trkpt lat="56.905975379172" lon="14.896158620678">
        <ele>169.2</ele>
        <time>2020-02-01T10:34:24Z</time>
      </trkpt>
      <trkpt lat="56.905960794666" lon="14.896196758323">
        <ele>168.8</ele>
        <time>2020-02-01T10:34:25Z</time>
      </trkpt>
      <trkpt lat="56.9058338927" lon="14.896446958038">
        <ele>169</ele>
        <time>2020-02-01T10:34:31Z</time>
      </trkpt>
      <trkpt lat="56.905717635747" lon="14.896718950693">
        <ele>168.8</ele>
        <time>2020-02-01T10:34:36Z</time>
      </trkpt>
      <trkpt lat="56.905625686304" lon="14.897006114587">
        <ele>167.8</ele>
        <time>2020-02-01T10:34:41Z</time>
      </trkpt>
      <trkpt lat="56.905600792061" lon="14.897066631905">
        <ele>167.8</ele>
        <time>2020-02-01T10:34:42Z</time>
      </trkpt>
      <trkpt lat="56.905497694691" lon="14.897374247635">
        <ele>167.4</ele>
        <time>2020-02-01T10:34:49Z</time>
      </trkpt>
      <trkpt lat="56.905410187655" lon="14.897580777651">
        <ele>166.8</ele>
        <time>2020-02-01T10:34:54Z</time>
      </trkpt>
      <trkpt lat="56.905330391967" lon="14.897678762062">
        <ele>165.4</ele>
        <time>2020-02-01T10:34:58Z</time>
      </trkpt>
      <trkpt lat="56.90525470341" lon="14.897710697101">
        <ele>164.2</ele>
        <time>2020-02-01T10:35:01Z</time>
      </trkpt>
      <trkpt lat="56.905216062851" lon="14.897727796177">
        <ele>163</ele>
        <time>2020-02-01T10:35:04Z</time>
      </trkpt>
      <trkpt lat="56.905199969603" lon="14.897783200536">
        <ele>162.8</ele>
        <time>2020-02-01T10:35:07Z</time>
      </trkpt>
      <trkpt lat="56.905163592157" lon="14.897865259337">
        <ele>162</ele>
        <time>2020-02-01T10:35:12Z</time>
      </trkpt>
      <trkpt lat="56.905082371546" lon="14.897964249576">
        <ele>161.8</ele>
        <time>2020-02-01T10:35:18Z</time>
      </trkpt>
      <trkpt lat="56.905067116488" lon="14.897979923729">
        <ele>161.8</ele>
        <time>2020-02-01T10:35:19Z</time>
      </trkpt>
      <trkpt lat="56.905007269722" lon="14.898076902312">
        <ele>161.8</ele>
        <time>2020-02-01T10:35:23Z</time>
      </trkpt>
      <trkpt lat="56.904989332456" lon="14.898095007216">
        <ele>161.6</ele>
        <time>2020-02-01T10:35:24Z</time>
      </trkpt>
      <trkpt lat="56.904962761833" lon="14.898126187884">
        <ele>161.4</ele>
        <time>2020-02-01T10:35:26Z</time>
      </trkpt>
      <trkpt lat="56.904914482089" lon="14.898148567557">
        <ele>161.4</ele>
        <time>2020-02-01T10:35:29Z</time>
      </trkpt>
      <trkpt lat="56.904879110471" lon="14.898153261421">
        <ele>162</ele>
        <time>2020-02-01T10:35:31Z</time>
      </trkpt>
      <trkpt lat="56.904845834328" lon="14.898211934721">
        <ele>163.2</ele>
        <time>2020-02-01T10:35:34Z</time>
      </trkpt>
      <trkpt lat="56.904789088865" lon="14.898291562771">
        <ele>163.4</ele>
        <time>2020-02-01T10:35:38Z</time>
      </trkpt>
      <trkpt lat="56.904774085264" lon="14.898313523349">
        <ele>163.2</ele>
        <time>2020-02-01T10:35:39Z</time>
      </trkpt>
      <trkpt lat="56.904758914025" lon="14.898374962676">
        <ele>162.8</ele>
        <time>2020-02-01T10:35:41Z</time>
      </trkpt>
      <trkpt lat="56.904750532125" lon="14.898441934057">
        <ele>162.4</ele>
        <time>2020-02-01T10:35:43Z</time>
      </trkpt>
      <trkpt lat="56.904735528524" lon="14.898554922069">
        <ele>162.2</ele>
        <time>2020-02-01T10:35:46Z</time>
      </trkpt>
      <trkpt lat="56.904732343402" lon="14.898594736094">
        <ele>161.8</ele>
        <time>2020-02-01T10:35:47Z</time>
      </trkpt>
      <trkpt lat="56.904683141649" lon="14.89870738883">
        <ele>162.2</ele>
        <time>2020-02-01T10:35:50Z</time>
      </trkpt>
      <trkpt lat="56.904563699574" lon="14.899023554098">
        <ele>161.2</ele>
        <time>2020-02-01T10:35:57Z</time>
      </trkpt>
      <trkpt lat="56.904539140607" lon="14.899092872411">
        <ele>161</ele>
        <time>2020-02-01T10:35:59Z</time>
      </trkpt>
      <trkpt lat="56.904378711041" lon="14.899305437395">
        <ele>161.4</ele>
        <time>2020-02-01T10:36:07Z</time>
      </trkpt>
      <trkpt lat="56.904265136296" lon="14.89943409956">
        <ele>160.8</ele>
        <time>2020-02-01T10:36:11Z</time>
      </trkpt>
      <trkpt lat="56.904111663707" lon="14.899640545757">
        <ele>160.8</ele>
        <time>2020-02-01T10:36:16Z</time>
      </trkpt>
      <trkpt lat="56.904094480812" lon="14.899691256252">
        <ele>160.8</ele>
        <time>2020-02-01T10:36:17Z</time>
      </trkpt>
      <trkpt lat="56.903995155297" lon="14.899984622752">
        <ele>160.8</ele>
        <time>2020-02-01T10:36:24Z</time>
      </trkpt>
      <trkpt lat="56.903971853615" lon="14.900080176412">
        <ele>161.2</ele>
        <time>2020-02-01T10:36:26Z</time>
      </trkpt>
      <trkpt lat="56.903953497254" lon="14.900167348172">
        <ele>161.6</ele>
        <time>2020-02-01T10:36:28Z</time>
      </trkpt>
      <trkpt lat="56.903938828929" lon="14.900207413654">
        <ele>161.8</ele>
        <time>2020-02-01T10:36:29Z</time>
      </trkpt>
      <trkpt lat="56.903837827034" lon="14.90049860086">
        <ele>162.4</ele>
        <time>2020-02-01T10:36:36Z</time>
      </trkpt>
      <trkpt lat="56.903805808176" lon="14.900593986882">
        <ele>163</ele>
        <time>2020-02-01T10:36:39Z</time>
      </trkpt>
      <trkpt lat="56.903715367475" lon="14.900740921589">
        <ele>163.2</ele>
        <time>2020-02-01T10:36:46Z</time>
      </trkpt>
      <trkpt lat="56.903607157146" lon="14.900922892638">
        <ele>162.2</ele>
        <time>2020-02-01T10:36:55Z</time>
      </trkpt>
      <trkpt lat="56.903580921799" lon="14.90097720735">
        <ele>162.4</ele>
        <time>2020-02-01T10:36:58Z</time>
      </trkpt>
      <trkpt lat="56.903531049494" lon="14.901040993609">
        <ele>162</ele>
        <time>2020-02-01T10:37:02Z</time>
      </trkpt>
      <trkpt lat="56.903521913223" lon="14.901046693301">
        <ele>162</ele>
        <time>2020-02-01T10:37:03Z</time>
      </trkpt>
      <trkpt lat="56.90351126821" lon="14.901057086857">
        <ele>161.8</ele>
        <time>2020-02-01T10:37:04Z</time>
      </trkpt>
      <trkpt lat="56.903373888869" lon="14.901126740446">
        <ele>161.6</ele>
        <time>2020-02-01T10:37:10Z</time>
      </trkpt>
      <trkpt lat="56.903155372736" lon="14.901170158688">
        <ele>161.6</ele>
        <time>2020-02-01T10:37:16Z</time>
      </trkpt>
      <trkpt lat="56.902962337579" lon="14.901300413414">
        <ele>162.6</ele>
        <time>2020-02-01T10:37:22Z</time>
      </trkpt>
      <trkpt lat="56.90290441865" lon="14.90136361294">
        <ele>162.8</ele>
        <time>2020-02-01T10:37:24Z</time>
      </trkpt>
      <trkpt lat="56.902886146108" lon="14.901401415309">
        <ele>163</ele>
        <time>2020-02-01T10:37:25Z</time>
      </trkpt>
      <trkpt lat="56.902740803962" lon="14.901666367168">
        <ele>163.2</ele>
        <time>2020-02-01T10:37:32Z</time>
      </trkpt>
      <trkpt lat="56.902605771553" lon="14.901901647101">
        <ele>163.6</ele>
        <time>2020-02-01T10:37:39Z</time>
      </trkpt>
      <trkpt lat="56.902439642295" lon="14.902065261789">
        <ele>163.2</ele>
        <time>2020-02-01T10:37:47Z</time>
      </trkpt>
      <trkpt lat="56.902262700386" lon="14.902211693582">
        <ele>163</ele>
        <time>2020-02-01T10:37:55Z</time>
      </trkpt>
      <trkpt lat="56.902076706025" lon="14.902296769867">
        <ele>163.4</ele>
        <time>2020-02-01T10:38:04Z</time>
      </trkpt>
      <trkpt lat="56.90194720567" lon="14.902550909075">
        <ele>163</ele>
        <time>2020-02-01T10:38:11Z</time>
      </trkpt>
      <trkpt lat="56.90189188513" lon="14.902638332292">
        <ele>163</ele>
        <time>2020-02-01T10:38:13Z</time>
      </trkpt>
      <trkpt lat="56.90177872948" lon="14.902929100403">
        <ele>162.8</ele>
        <time>2020-02-01T10:38:21Z</time>
      </trkpt>
      <trkpt lat="56.901747129717" lon="14.903004705141">
        <ele>162.8</ele>
        <time>2020-02-01T10:38:23Z</time>
      </trkpt>
      <trkpt lat="56.901667334029" lon="14.903106377588">
        <ele>162.2</ele>
        <time>2020-02-01T10:38:27Z</time>
      </trkpt>
      <trkpt lat="56.901475137062" lon="14.903253396114">
        <ele>163</ele>
        <time>2020-02-01T10:38:36Z</time>
      </trkpt>
      <trkpt lat="56.901451081009" lon="14.903281224022">
        <ele>162.8</ele>
        <time>2020-02-01T10:38:37Z</time>
      </trkpt>
      <trkpt lat="56.901291238176" lon="14.90352530495">
        <ele>163.2</ele>
        <time>2020-02-01T10:38:44Z</time>
      </trkpt>
      <trkpt lat="56.90127162453" lon="14.903555144514">
        <ele>163.2</ele>
        <time>2020-02-01T10:38:45Z</time>
      </trkpt>
      <trkpt lat="56.901172131377" lon="14.903625636293">
        <ele>162.6</ele>
        <time>2020-02-01T10:38:49Z</time>
      </trkpt>
      <trkpt lat="56.901025615765" lon="14.903869130488">
        <ele>162.6</ele>
        <time>2020-02-01T10:38:56Z</time>
      </trkpt>
      <trkpt lat="56.9010143002" lon="14.903893354179">
        <ele>162.2</ele>
        <time>2020-02-01T10:38:57Z</time>
      </trkpt>
      <trkpt lat="56.900996782029" lon="14.903902658088">
        <ele>162</ele>
        <time>2020-02-01T10:38:58Z</time>
      </trkpt>
      <trkpt lat="56.900980185867" lon="14.903920176259">
        <ele>161.8</ele>
        <time>2020-02-01T10:38:59Z</time>
      </trkpt>
      <trkpt lat="56.900947580276" lon="14.903992260599">
        <ele>161.4</ele>
        <time>2020-02-01T10:39:02Z</time>
      </trkpt>
      <trkpt lat="56.900929307734" lon="14.904038696325">
        <ele>161.4</ele>
        <time>2020-02-01T10:39:04Z</time>
      </trkpt>
      <trkpt lat="56.900865018561" lon="14.904150846147">
        <ele>161.2</ele>
        <time>2020-02-01T10:39:08Z</time>
      </trkpt>
      <trkpt lat="56.900840208137" lon="14.904184541385">
        <ele>161.4</ele>
        <time>2020-02-01T10:39:09Z</time>
      </trkpt>
      <trkpt lat="56.90078715071" lon="14.904286632927">
        <ele>161.8</ele>
        <time>2020-02-01T10:39:12Z</time>
      </trkpt>
      <trkpt lat="56.900640132184" lon="14.904525600896">
        <ele>162.2</ele>
        <time>2020-02-01T10:39:19Z</time>
      </trkpt>
      <trkpt lat="56.90053820828" lon="14.904842185259">
        <ele>162</ele>
        <time>2020-02-01T10:39:27Z</time>
      </trkpt>
      <trkpt lat="56.900532508588" lon="14.904888118071">
        <ele>162</ele>
        <time>2020-02-01T10:39:28Z</time>
      </trkpt>
      <trkpt lat="56.900428573028" lon="14.905197326362">
        <ele>162.6</ele>
        <time>2020-02-01T10:39:36Z</time>
      </trkpt>
      <trkpt lat="56.900397643817" lon="14.905248958866">
        <ele>163.4</ele>
        <time>2020-02-01T10:39:38Z</time>
      </trkpt>
      <trkpt lat="56.900350956634" lon="14.905304279406">
        <ele>164.6</ele>
        <time>2020-02-01T10:39:41Z</time>
      </trkpt>
      <trkpt lat="56.900315501197" lon="14.905346608001">
        <ele>165.2</ele>
        <time>2020-02-01T10:39:43Z</time>
      </trkpt>
      <trkpt lat="56.900241656658" lon="14.90561742719">
        <ele>165</ele>
        <time>2020-02-01T10:39:49Z</time>
      </trkpt>
      <trkpt lat="56.900209721619" lon="14.905915571373">
        <ele>165.2</ele>
        <time>2020-02-01T10:39:56Z</time>
      </trkpt>
      <trkpt lat="56.900219193166" lon="14.905965108402">
        <ele>165.4</ele>
        <time>2020-02-01T10:39:58Z</time>
      </trkpt>
      <trkpt lat="56.900204776298" lon="14.90603316943">
        <ele>165.2</ele>
        <time>2020-02-01T10:40:03Z</time>
      </trkpt>
      <trkpt lat="56.90010318767" lon="14.906134925696">
        <ele>165.4</ele>
        <time>2020-02-01T10:40:25Z</time>
      </trkpt>
      <trkpt lat="56.900076784685" lon="14.906151521858">
        <ele>165.8</ele>
        <time>2020-02-01T10:40:27Z</time>
      </trkpt>
      <trkpt lat="56.900003275422" lon="14.906219918162">
        <ele>167</ele>
        <time>2020-02-01T10:40:31Z</time>
      </trkpt>
      <trkpt lat="56.899942590466" lon="14.906289152656">
        <ele>166.4</ele>
        <time>2020-02-01T10:40:34Z</time>
      </trkpt>
      <trkpt lat="56.899914427282" lon="14.906307173741">
        <ele>165.8</ele>
        <time>2020-02-01T10:40:35Z</time>
      </trkpt>
      <trkpt lat="56.899822058744" lon="14.906388478171">
        <ele>165.4</ele>
        <time>2020-02-01T10:40:39Z</time>
      </trkpt>
      <trkpt lat="56.899826333513" lon="14.906751246803">
        <ele>165.2</ele>
        <time>2020-02-01T10:40:47Z</time>
      </trkpt>
      <trkpt lat="56.899827758436" lon="14.90693003273">
        <ele>167</ele>
        <time>2020-02-01T10:40:52Z</time>
      </trkpt>
      <trkpt lat="56.89982155583" lon="14.907265057273">
        <ele>166.8</ele>
        <time>2020-02-01T10:40:59Z</time>
      </trkpt>
      <trkpt lat="56.899808899161" lon="14.907547108208">
        <ele>167.6</ele>
        <time>2020-02-01T10:41:05Z</time>
      </trkpt>
      <trkpt lat="56.89979221918" lon="14.907647942465">
        <ele>168</ele>
        <time>2020-02-01T10:41:08Z</time>
      </trkpt>
      <trkpt lat="56.899744190893" lon="14.907830081152">
        <ele>169.2</ele>
        <time>2020-02-01T10:41:12Z</time>
      </trkpt>
      <trkpt lat="56.899735054622" lon="14.908131242819">
        <ele>169.6</ele>
        <time>2020-02-01T10:41:18Z</time>
      </trkpt>
      <trkpt lat="56.899743352703" lon="14.908290666557">
        <ele>170.2</ele>
        <time>2020-02-01T10:41:21Z</time>
      </trkpt>
      <trkpt lat="56.89974276597" lon="14.908430560468">
        <ele>171.4</ele>
        <time>2020-02-01T10:41:24Z</time>
      </trkpt>
      <trkpt lat="56.899743017427" lon="14.908616722467">
        <ele>172.4</ele>
        <time>2020-02-01T10:41:28Z</time>
      </trkpt>
      <trkpt lat="56.899733713518" lon="14.908667432962">
        <ele>172.4</ele>
        <time>2020-02-01T10:41:29Z</time>
      </trkpt>
      <trkpt lat="56.899699012452" lon="14.908931295174">
        <ele>172.4</ele>
        <time>2020-02-01T10:41:36Z</time>
      </trkpt>
      <trkpt lat="56.899698425719" lon="14.909102202115">
        <ele>173.6</ele>
        <time>2020-02-01T10:41:41Z</time>
      </trkpt>
      <trkpt lat="56.899702113755" lon="14.909138831018">
        <ele>174</ele>
        <time>2020-02-01T10:41:42Z</time>
      </trkpt>
      <trkpt lat="56.899708986913" lon="14.909210412444">
        <ele>174.6</ele>
        <time>2020-02-01T10:41:44Z</time>
      </trkpt>
      <trkpt lat="56.89971007656" lon="14.909246454614">
        <ele>174.8</ele>
        <time>2020-02-01T10:41:45Z</time>
      </trkpt>
      <trkpt lat="56.899703706316" lon="14.909280485128">
        <ele>175</ele>
        <time>2020-02-01T10:41:46Z</time>
      </trkpt>
      <trkpt lat="56.899683422118" lon="14.909384755964">
        <ele>175.8</ele>
        <time>2020-02-01T10:41:49Z</time>
      </trkpt>
      <trkpt lat="56.899697336072" lon="14.909490954637">
        <ele>176.4</ele>
        <time>2020-02-01T10:41:52Z</time>
      </trkpt>
      <trkpt lat="56.899729774025" lon="14.909561362597">
        <ele>177.4</ele>
        <time>2020-02-01T10:41:54Z</time>
      </trkpt>
      <trkpt lat="56.899753913897" lon="14.90963068091">
        <ele>178.4</ele>
        <time>2020-02-01T10:41:56Z</time>
      </trkpt>
      <trkpt lat="56.899782077081" lon="14.909733694461">
        <ele>179.6</ele>
        <time>2020-02-01T10:41:59Z</time>
      </trkpt>
      <trkpt lat="56.899781574167" lon="14.909813322511">
        <ele>180</ele>
        <time>2020-02-01T10:42:01Z</time>
      </trkpt>
      <trkpt lat="56.899770510059" lon="14.9099584132">
        <ele>180.6</ele>
        <time>2020-02-01T10:42:05Z</time>
      </trkpt>
      <trkpt lat="56.899772186439" lon="14.909992611352">
        <ele>180.8</ele>
        <time>2020-02-01T10:42:06Z</time>
      </trkpt>
      <trkpt lat="56.899775036285" lon="14.910065030968">
        <ele>181.6</ele>
        <time>2020-02-01T10:42:08Z</time>
      </trkpt>
      <trkpt lat="56.899769504231" lon="14.910096043998">
        <ele>182</ele>
        <time>2020-02-01T10:42:09Z</time>
      </trkpt>
      <trkpt lat="56.899795488121" lon="14.910208277639">
        <ele>183</ele>
        <time>2020-02-01T10:42:13Z</time>
      </trkpt>
      <trkpt lat="56.899798170329" lon="14.910291426087">
        <ele>184.4</ele>
        <time>2020-02-01T10:42:16Z</time>
      </trkpt>
      <trkpt lat="56.899790207524" lon="14.910332581216">
        <ele>185.2</ele>
        <time>2020-02-01T10:42:18Z</time>
      </trkpt>
      <trkpt lat="56.899788782601" lon="14.910362001685">
        <ele>185.6</ele>
        <time>2020-02-01T10:42:19Z</time>
      </trkpt>
      <trkpt lat="56.89976791167" lon="14.910428553971">
        <ele>186.4</ele>
        <time>2020-02-01T10:42:22Z</time>
      </trkpt>
      <trkpt lat="56.899685433774" lon="14.910560401258">
        <ele>186.8</ele>
        <time>2020-02-01T10:42:25Z</time>
      </trkpt>
      <trkpt lat="56.899679482625" lon="14.91058957027">
        <ele>186.8</ele>
        <time>2020-02-01T10:42:26Z</time>
      </trkpt>
      <trkpt lat="56.899660371893" lon="14.910644974629">
        <ele>187.4</ele>
        <time>2020-02-01T10:42:28Z</time>
      </trkpt>
      <trkpt lat="56.899633968908" lon="14.910718148616">
        <ele>188</ele>
        <time>2020-02-01T10:42:30Z</time>
      </trkpt>
      <trkpt lat="56.899593232874" lon="14.910832142456">
        <ele>189.2</ele>
        <time>2020-02-01T10:42:33Z</time>
      </trkpt>
      <trkpt lat="56.899582587861" lon="14.910912943972">
        <ele>189.8</ele>
        <time>2020-02-01T10:42:35Z</time>
      </trkpt>
      <trkpt lat="56.899568841545" lon="14.91095418292">
        <ele>190.2</ele>
        <time>2020-02-01T10:42:36Z</time>
      </trkpt>
      <trkpt lat="56.899544617854" lon="14.91099944518">
        <ele>190.6</ele>
        <time>2020-02-01T10:42:37Z</time>
      </trkpt>
      <trkpt lat="56.899526932045" lon="14.911057028833">
        <ele>191.2</ele>
        <time>2020-02-01T10:42:39Z</time>
      </trkpt>
      <trkpt lat="56.899517460498" lon="14.911090640252">
        <ele>191.4</ele>
        <time>2020-02-01T10:42:40Z</time>
      </trkpt>
      <trkpt lat="56.899516119394" lon="14.911123162024">
        <ele>191.8</ele>
        <time>2020-02-01T10:42:41Z</time>
      </trkpt>
      <trkpt lat="56.899471024772" lon="14.911273784767">
        <ele>192.6</ele>
        <time>2020-02-01T10:42:44Z</time>
      </trkpt>
      <trkpt lat="56.899466498546" lon="14.911316867733">
        <ele>192.8</ele>
        <time>2020-02-01T10:42:45Z</time>
      </trkpt>
      <trkpt lat="56.899435401697" lon="14.911464975906">
        <ele>193.8</ele>
        <time>2020-02-01T10:42:48Z</time>
      </trkpt>
      <trkpt lat="56.89941168092" lon="14.911573940606">
        <ele>194</ele>
        <time>2020-02-01T10:42:50Z</time>
      </trkpt>
      <trkpt lat="56.899358791131" lon="14.91180997491">
        <ele>195</ele>
        <time>2020-02-01T10:42:55Z</time>
      </trkpt>
      <trkpt lat="56.899342027331" lon="14.911941989835">
        <ele>196</ele>
        <time>2020-02-01T10:42:58Z</time>
      </trkpt>
      <trkpt lat="56.899335824725" lon="14.911981049489">
        <ele>196.4</ele>
        <time>2020-02-01T10:42:59Z</time>
      </trkpt>
      <trkpt lat="56.89922308817" lon="14.912184813478">
        <ele>196.6</ele>
        <time>2020-02-01T10:43:07Z</time>
      </trkpt>
      <trkpt lat="56.899146309966" lon="14.912369634373">
        <ele>196.8</ele>
        <time>2020-02-01T10:43:13Z</time>
      </trkpt>
      <trkpt lat="56.899115296936" lon="14.912418668488">
        <ele>196.8</ele>
        <time>2020-02-01T10:43:15Z</time>
      </trkpt>
      <trkpt lat="56.899063412975" lon="14.912528052283">
        <ele>196.8</ele>
        <time>2020-02-01T10:43:18Z</time>
      </trkpt>
      <trkpt lat="56.898989149341" lon="14.912696109378">
        <ele>197</ele>
        <time>2020-02-01T10:43:23Z</time>
      </trkpt>
      <trkpt lat="56.898911113852" lon="14.913043539133">
        <ele>197.4</ele>
        <time>2020-02-01T10:43:31Z</time>
      </trkpt>
      <trkpt lat="56.898874065854" lon="14.913367834844">
        <ele>197.8</ele>
        <time>2020-02-01T10:43:37Z</time>
      </trkpt>
      <trkpt lat="56.898800472772" lon="14.913722975947">
        <ele>197.4</ele>
        <time>2020-02-01T10:43:43Z</time>
      </trkpt>
      <trkpt lat="56.898763089498" lon="14.914088426787">
        <ele>197</ele>
        <time>2020-02-01T10:43:50Z</time>
      </trkpt>
      <trkpt lat="56.898823187721" lon="14.914395874879">
        <ele>197.6</ele>
        <time>2020-02-01T10:43:57Z</time>
      </trkpt>
      <trkpt lat="56.89885512276" lon="14.914525039958">
        <ele>198.4</ele>
        <time>2020-02-01T10:44:00Z</time>
      </trkpt>
      <trkpt lat="56.898896864622" lon="14.914867021478">
        <ele>199.6</ele>
        <time>2020-02-01T10:44:07Z</time>
      </trkpt>
      <trkpt lat="56.898893344224" lon="14.915133146803">
        <ele>200.8</ele>
        <time>2020-02-01T10:44:13Z</time>
      </trkpt>
      <trkpt lat="56.898867192696" lon="14.91538401707">
        <ele>202</ele>
        <time>2020-02-01T10:44:19Z</time>
      </trkpt>
      <trkpt lat="56.898837269313" lon="14.915683167081">
        <ele>203</ele>
        <time>2020-02-01T10:44:26Z</time>
      </trkpt>
      <trkpt lat="56.898841292625" lon="14.916024310411">
        <ele>204.2</ele>
        <time>2020-02-01T10:44:34Z</time>
      </trkpt>
      <trkpt lat="56.898848501059" lon="14.916132185464">
        <ele>204.8</ele>
        <time>2020-02-01T10:44:37Z</time>
      </trkpt>
      <trkpt lat="56.898836766399" lon="14.916216591197">
        <ele>205.2</ele>
        <time>2020-02-01T10:44:39Z</time>
      </trkpt>
      <trkpt lat="56.898773566873" lon="14.916548430618">
        <ele>206</ele>
        <time>2020-02-01T10:44:46Z</time>
      </trkpt>
      <trkpt lat="56.898743811128" lon="14.916668459426">
        <ele>206.2</ele>
        <time>2020-02-01T10:44:49Z</time>
      </trkpt>
      <trkpt lat="56.898692430081" lon="14.916817405789">
        <ele>207.4</ele>
        <time>2020-02-01T10:44:54Z</time>
      </trkpt>
      <trkpt lat="56.89865730992" lon="14.916958640804">
        <ele>208.4</ele>
        <time>2020-02-01T10:44:58Z</time>
      </trkpt>
      <trkpt lat="56.898600815914" lon="14.917244044499">
        <ele>209.8</ele>
        <time>2020-02-01T10:45:08Z</time>
      </trkpt>
      <trkpt lat="56.898588997435" lon="14.917394751061">
        <ele>210.8</ele>
        <time>2020-02-01T10:45:12Z</time>
      </trkpt>
      <trkpt lat="56.898576256947" lon="14.917529867289">
        <ele>211.6</ele>
        <time>2020-02-01T10:45:16Z</time>
      </trkpt>
      <trkpt lat="56.898568377961" lon="14.917603292733">
        <ele>212</ele>
        <time>2020-02-01T10:45:18Z</time>
      </trkpt>
      <trkpt lat="56.898562762088" lon="14.917774618769">
        <ele>213.2</ele>
        <time>2020-02-01T10:45:23Z</time>
      </trkpt>
      <trkpt lat="56.898527893384" lon="14.91809807629">
        <ele>214.4</ele>
        <time>2020-02-01T10:45:31Z</time>
      </trkpt>
      <trkpt lat="56.898468884808" lon="14.918458330352">
        <ele>213.8</ele>
        <time>2020-02-01T10:45:39Z</time>
      </trkpt>
      <trkpt lat="56.898453378293" lon="14.918543909551">
        <ele>213.2</ele>
        <time>2020-02-01T10:45:41Z</time>
      </trkpt>
      <trkpt lat="56.898409960051" lon="14.918765359349">
        <ele>212</ele>
        <time>2020-02-01T10:45:47Z</time>
      </trkpt>
      <trkpt lat="56.898397051925" lon="14.918783045158">
        <ele>211.8</ele>
        <time>2020-02-01T10:45:48Z</time>
      </trkpt>
      <trkpt lat="56.898308790518" lon="14.918807855582">
        <ele>210.8</ele>
        <time>2020-02-01T10:45:53Z</time>
      </trkpt>
      <trkpt lat="56.898166884951" lon="14.918841467001">
        <ele>210.2</ele>
        <time>2020-02-01T10:46:01Z</time>
      </trkpt>
      <trkpt lat="56.898078539725" lon="14.918888992374">
        <ele>209.6</ele>
        <time>2020-02-01T10:46:06Z</time>
      </trkpt>
      <trkpt lat="56.897898580332" lon="14.918884214691">
        <ele>209.4</ele>
        <time>2020-02-01T10:46:18Z</time>
      </trkpt>
      <trkpt lat="56.897718872396" lon="14.918870803651">
        <ele>208.6</ele>
        <time>2020-02-01T10:46:25Z</time>
      </trkpt>
      <trkpt lat="56.897510246905" lon="14.918992760296">
        <ele>208.4</ele>
        <time>2020-02-01T10:46:31Z</time>
      </trkpt>
      <trkpt lat="56.897326934752" lon="14.919074902916">
        <ele>208.4</ele>
        <time>2020-02-01T10:46:39Z</time>
      </trkpt>
      <trkpt lat="56.897158877657" lon="14.91909552239">
        <ele>207.6</ele>
        <time>2020-02-01T10:46:47Z</time>
      </trkpt>
      <trkpt lat="56.897119901822" lon="14.919104407204">
        <ele>207.6</ele>
        <time>2020-02-01T10:46:49Z</time>
      </trkpt>
      <trkpt lat="56.896913707082" lon="14.919135336415">
        <ele>206.6</ele>
        <time>2020-02-01T10:46:57Z</time>
      </trkpt>
      <trkpt lat="56.896885962993" lon="14.919145646152">
        <ele>206.6</ele>
        <time>2020-02-01T10:46:58Z</time>
      </trkpt>
      <trkpt lat="56.896690497085" lon="14.919178838476">
        <ele>205.4</ele>
        <time>2020-02-01T10:47:05Z</time>
      </trkpt>
      <trkpt lat="56.896605253162" lon="14.919200212321">
        <ele>204.2</ele>
        <time>2020-02-01T10:47:08Z</time>
      </trkpt>
      <trkpt lat="56.896484469983" lon="14.91921119261">
        <ele>202.8</ele>
        <time>2020-02-01T10:47:13Z</time>
      </trkpt>
      <trkpt lat="56.896369135039" lon="14.919236925043">
        <ele>201.8</ele>
        <time>2020-02-01T10:47:18Z</time>
      </trkpt>
      <trkpt lat="56.896298224165" lon="14.919230387161">
        <ele>200.4</ele>
        <time>2020-02-01T10:47:21Z</time>
      </trkpt>
      <trkpt lat="56.896207448188" lon="14.919199793226">
        <ele>199.2</ele>
        <time>2020-02-01T10:47:25Z</time>
      </trkpt>
      <trkpt lat="56.896142404644" lon="14.919166349445">
        <ele>198.2</ele>
        <time>2020-02-01T10:47:28Z</time>
      </trkpt>
      <trkpt lat="56.895953811894" lon="14.919133073302">
        <ele>197</ele>
        <time>2020-02-01T10:47:34Z</time>
      </trkpt>
      <trkpt lat="56.895816851648" lon="14.919109603982">
        <ele>195.8</ele>
        <time>2020-02-01T10:47:39Z</time>
      </trkpt>
      <trkpt lat="56.89572867406" lon="14.919118907891">
        <ele>194.6</ele>
        <time>2020-02-01T10:47:42Z</time>
      </trkpt>
      <trkpt lat="56.895608058519" lon="14.919178670838">
        <ele>193.2</ele>
        <time>2020-02-01T10:47:45Z</time>
      </trkpt>
      <trkpt lat="56.895453496283" lon="14.919294005782">
        <ele>192.2</ele>
        <time>2020-02-01T10:47:48Z</time>
      </trkpt>
      <trkpt lat="56.895420387778" lon="14.919311523953">
        <ele>192</ele>
        <time>2020-02-01T10:47:49Z</time>
      </trkpt>
      <trkpt lat="56.895291390337" lon="14.919349661598">
        <ele>190.8</ele>
        <time>2020-02-01T10:47:53Z</time>
      </trkpt>
      <trkpt lat="56.895212768115" lon="14.919311607772">
        <ele>189.8</ele>
        <time>2020-02-01T10:47:56Z</time>
      </trkpt>
      <trkpt lat="56.895067006874" lon="14.91919275243">
        <ele>188.8</ele>
        <time>2020-02-01T10:48:03Z</time>
      </trkpt>
      <trkpt lat="56.894891825164" lon="14.919037435823">
        <ele>189</ele>
        <time>2020-02-01T10:48:11Z</time>
      </trkpt>
      <trkpt lat="56.894700885482" lon="14.918956299031">
        <ele>188.2</ele>
        <time>2020-02-01T10:48:19Z</time>
      </trkpt>
      <trkpt lat="56.894508772334" lon="14.918864098131">
        <ele>188</ele>
        <time>2020-02-01T10:48:26Z</time>
      </trkpt>
      <trkpt lat="56.894325124905" lon="14.918834174748">
        <ele>188.2</ele>
        <time>2020-02-01T10:48:32Z</time>
      </trkpt>
      <trkpt lat="56.894156481077" lon="14.91876359915">
        <ele>188</ele>
        <time>2020-02-01T10:48:40Z</time>
      </trkpt>
      <trkpt lat="56.894132508843" lon="14.918740465106">
        <ele>187.8</ele>
        <time>2020-02-01T10:48:42Z</time>
      </trkpt>
      <trkpt lat="56.894132927938" lon="14.918740800382">
        <ele>187.6</ele>
        <time>2020-02-01T10:48:43Z</time>
      </trkpt>
      <trkpt lat="56.894135023413" lon="14.918738285812">
        <ele>187.6</ele>
        <time>2020-02-01T10:48:44Z</time>
      </trkpt>
      <trkpt lat="56.894146590435" lon="14.918692101543">
        <ele>187.8</ele>
        <time>2020-02-01T10:48:47Z</time>
      </trkpt>
      <trkpt lat="56.894159666199" lon="14.918640636677">
        <ele>187.8</ele>
        <time>2020-02-01T10:48:49Z</time>
      </trkpt>
      <trkpt lat="56.894194367265" lon="14.918469813555">
        <ele>187.8</ele>
        <time>2020-02-01T10:48:55Z</time>
      </trkpt>
      <trkpt lat="56.894254465488" lon="14.918241825875">
        <ele>187.4</ele>
        <time>2020-02-01T10:49:01Z</time>
      </trkpt>
      <trkpt lat="56.894288998916" lon="14.917990536513">
        <ele>186.8</ele>
        <time>2020-02-01T10:49:05Z</time>
      </trkpt>
      <trkpt lat="56.894290172382" lon="14.917889702256">
        <ele>186.6</ele>
        <time>2020-02-01T10:49:07Z</time>
      </trkpt>
      <trkpt lat="56.89421071197" lon="14.917565155088">
        <ele>186.4</ele>
        <time>2020-02-01T10:49:15Z</time>
      </trkpt>
      <trkpt lat="56.894135861603" lon="14.917427691928">
        <ele>185.4</ele>
        <time>2020-02-01T10:49:21Z</time>
      </trkpt>
      <trkpt lat="56.894125551866" lon="14.917412604508">
        <ele>185.4</ele>
        <time>2020-02-01T10:49:22Z</time>
      </trkpt>
      <trkpt lat="56.894048438386" lon="14.917249157458">
        <ele>184.2</ele>
        <time>2020-02-01T10:49:29Z</time>
      </trkpt>
      <trkpt lat="56.893976940779" lon="14.917138516378">
        <ele>183.2</ele>
        <time>2020-02-01T10:49:33Z</time>
      </trkpt>
      <trkpt lat="56.893883734051" lon="14.917147149735">
        <ele>183</ele>
        <time>2020-02-01T10:49:38Z</time>
      </trkpt>
      <trkpt lat="56.893704780486" lon="14.917236500789">
        <ele>183</ele>
        <time>2020-02-01T10:49:47Z</time>
      </trkpt>
      <trkpt lat="56.893517361202" lon="14.917174307091">
        <ele>182.4</ele>
        <time>2020-02-01T10:49:56Z</time>
      </trkpt>
      <trkpt lat="56.893440834455" lon="14.917043297994">
        <ele>182</ele>
        <time>2020-02-01T10:50:00Z</time>
      </trkpt>
      <trkpt lat="56.89336749283" lon="14.916874151252">
        <ele>181</ele>
        <time>2020-02-01T10:50:05Z</time>
      </trkpt>
      <trkpt lat="56.893284595839" lon="14.916668459426">
        <ele>179.8</ele>
        <time>2020-02-01T10:50:10Z</time>
      </trkpt>
      <trkpt lat="56.893194155138" lon="14.916432257484">
        <ele>178.8</ele>
        <time>2020-02-01T10:50:16Z</time>
      </trkpt>
      <trkpt lat="56.893153502923" lon="14.916102178262">
        <ele>177.8</ele>
        <time>2020-02-01T10:50:24Z</time>
      </trkpt>
      <trkpt lat="56.893146629765" lon="14.916053898518">
        <ele>177.8</ele>
        <time>2020-02-01T10:50:25Z</time>
      </trkpt>
      <trkpt lat="56.893154760208" lon="14.915881147559">
        <ele>176.6</ele>
        <time>2020-02-01T10:50:29Z</time>
      </trkpt>
      <trkpt lat="56.893123495721" lon="14.915552660898">
        <ele>176</ele>
        <time>2020-02-01T10:50:36Z</time>
      </trkpt>
      <trkpt lat="56.893110587595" lon="14.915414946281">
        <ele>175.4</ele>
        <time>2020-02-01T10:50:39Z</time>
      </trkpt>
      <trkpt lat="56.893111593423" lon="14.915226102074">
        <ele>174.2</ele>
        <time>2020-02-01T10:50:43Z</time>
      </trkpt>
      <trkpt lat="56.893126848481" lon="14.914896693404">
        <ele>174</ele>
        <time>2020-02-01T10:50:50Z</time>
      </trkpt>
      <trkpt lat="56.893131793802" lon="14.914753949647">
        <ele>173</ele>
        <time>2020-02-01T10:50:53Z</time>
      </trkpt>
      <trkpt lat="56.893125423558" lon="14.914713548889">
        <ele>172.8</ele>
        <time>2020-02-01T10:50:54Z</time>
      </trkpt>
      <trkpt lat="56.893057781625" lon="14.914527889804">
        <ele>171.8</ele>
        <time>2020-02-01T10:50:59Z</time>
      </trkpt>
      <trkpt lat="56.893058955091" lon="14.914329993145">
        <ele>170.8</ele>
        <time>2020-02-01T10:51:04Z</time>
      </trkpt>
      <trkpt lat="56.893051159924" lon="14.914112399021">
        <ele>169.8</ele>
        <time>2020-02-01T10:51:09Z</time>
      </trkpt>
      <trkpt lat="56.893021236541" lon="14.91375038476">
        <ele>170.2</ele>
        <time>2020-02-01T10:51:17Z</time>
      </trkpt>
      <trkpt lat="56.892963149974" lon="14.913419970262">
        <ele>169.4</ele>
        <time>2020-02-01T10:51:24Z</time>
      </trkpt>
      <trkpt lat="56.892953343151" lon="14.913332211769">
        <ele>168.6</ele>
        <time>2020-02-01T10:51:26Z</time>
      </trkpt>
      <trkpt lat="56.892944709794" lon="14.913218050291">
        <ele>167.8</ele>
        <time>2020-02-01T10:51:29Z</time>
      </trkpt>
      <trkpt lat="56.892946050898" lon="14.913188126908">
        <ele>167.6</ele>
        <time>2020-02-01T10:51:30Z</time>
      </trkpt>
      <trkpt lat="56.892942865776" lon="14.91306725991">
        <ele>166.6</ele>
        <time>2020-02-01T10:51:34Z</time>
      </trkpt>
      <trkpt lat="56.892945715622" lon="14.912989643516">
        <ele>165.6</ele>
        <time>2020-02-01T10:51:37Z</time>
      </trkpt>
      <trkpt lat="56.892950660943" lon="14.912984446738">
        <ele>165.4</ele>
        <time>2020-02-01T10:51:38Z</time>
      </trkpt>
      <trkpt lat="56.892966335096" lon="14.912973550268">
        <ele>165.2</ele>
        <time>2020-02-01T10:51:41Z</time>
      </trkpt>
      <trkpt lat="56.892957701739" lon="14.912966425653">
        <ele>165.2</ele>
        <time>2020-02-01T10:51:44Z</time>
      </trkpt>
      <trkpt lat="56.892933729505" lon="14.912965419825">
        <ele>165.6</ele>
        <time>2020-02-01T10:51:46Z</time>
      </trkpt>
      <trkpt lat="56.892799535286" lon="14.913038845269">
        <ele>165.6</ele>
        <time>2020-02-01T10:51:54Z</time>
      </trkpt>
      <trkpt lat="56.8927078373" lon="14.913136159128">
        <ele>166.4</ele>
        <time>2020-02-01T10:51:59Z</time>
      </trkpt>
      <trkpt lat="56.892588730501" lon="14.913435476777">
        <ele>166.6</ele>
        <time>2020-02-01T10:52:06Z</time>
      </trkpt>
      <trkpt lat="56.892529386649" lon="14.913588278814">
        <ele>167</ele>
        <time>2020-02-01T10:52:10Z</time>
      </trkpt>
      <trkpt lat="56.892522513491" lon="14.913648796132">
        <ele>167.4</ele>
        <time>2020-02-01T10:52:11Z</time>
      </trkpt>
      <trkpt lat="56.892478424697" lon="14.913930847067">
        <ele>167.8</ele>
        <time>2020-02-01T10:52:17Z</time>
      </trkpt>
      <trkpt lat="56.892485884588" lon="14.914007457633">
        <ele>168</ele>
        <time>2020-02-01T10:52:19Z</time>
      </trkpt>
      <trkpt lat="56.892474652842" lon="14.914184231904">
        <ele>168.4</ele>
        <time>2020-02-01T10:52:23Z</time>
      </trkpt>
      <trkpt lat="56.892469958978" lon="14.914224297386">
        <ele>168.6</ele>
        <time>2020-02-01T10:52:24Z</time>
      </trkpt>
      <trkpt lat="56.892472473548" lon="14.914412638679">
        <ele>169.6</ele>
        <time>2020-02-01T10:52:29Z</time>
      </trkpt>
      <trkpt lat="56.892452273169" lon="14.914509114348">
        <ele>170.2</ele>
        <time>2020-02-01T10:52:32Z</time>
      </trkpt>
      <trkpt lat="56.892378512449" lon="14.914578097385">
        <ele>170.2</ele>
        <time>2020-02-01T10:52:37Z</time>
      </trkpt>
      <trkpt lat="56.892360239907" lon="14.914592430434">
        <ele>170.6</ele>
        <time>2020-02-01T10:52:39Z</time>
      </trkpt>
      <trkpt lat="56.892322772814" lon="14.914565189259">
        <ele>170</ele>
        <time>2020-02-01T10:52:42Z</time>
      </trkpt>
      <trkpt lat="56.892215987408" lon="14.914551359124">
        <ele>170.8</ele>
        <time>2020-02-01T10:52:47Z</time>
      </trkpt>
      <trkpt lat="56.892013899799" lon="14.914491931453">
        <ele>170.2</ele>
        <time>2020-02-01T10:52:56Z</time>
      </trkpt>
      <trkpt lat="56.891902588167" lon="14.914507605606">
        <ele>169.8</ele>
        <time>2020-02-01T10:53:00Z</time>
      </trkpt>
      <trkpt lat="56.89177409364" lon="14.914725535006">
        <ele>170</ele>
        <time>2020-02-01T10:53:05Z</time>
      </trkpt>
      <trkpt lat="56.891726735905" lon="14.914908260426">
        <ele>171.6</ele>
        <time>2020-02-01T10:53:11Z</time>
      </trkpt>
      <trkpt lat="56.891693040667" lon="14.914946649528">
        <ele>171.6</ele>
        <time>2020-02-01T10:53:13Z</time>
      </trkpt>
      <trkpt lat="56.891505956659" lon="14.914992414702">
        <ele>171.4</ele>
        <time>2020-02-01T10:53:21Z</time>
      </trkpt>
      <trkpt lat="56.891392298095" lon="14.91500850795">
        <ele>171.4</ele>
        <time>2020-02-01T10:53:27Z</time>
      </trkpt>
      <trkpt lat="56.891293643132" lon="14.915093081321">
        <ele>172</ele>
        <time>2020-02-01T10:53:32Z</time>
      </trkpt>
      <trkpt lat="56.891112677911" lon="14.915257618018">
        <ele>171.6</ele>
        <time>2020-02-01T10:53:39Z</time>
      </trkpt>
      <trkpt lat="56.890967503403" lon="14.915021164619">
        <ele>171.6</ele>
        <time>2020-02-01T10:53:47Z</time>
      </trkpt>
      <trkpt lat="56.890848312785" lon="14.914776580777">
        <ele>171.8</ele>
        <time>2020-02-01T10:53:54Z</time>
      </trkpt>
      <trkpt lat="56.89073306166" lon="14.91452571051">
        <ele>171.8</ele>
        <time>2020-02-01T10:54:01Z</time>
      </trkpt>
      <trkpt lat="56.890574727569" lon="14.914302165237">
        <ele>171.8</ele>
        <time>2020-02-01T10:54:07Z</time>
      </trkpt>
      <trkpt lat="56.890447071232" lon="14.914038135387">
        <ele>172.2</ele>
        <time>2020-02-01T10:54:14Z</time>
      </trkpt>
      <trkpt lat="56.890340956378" lon="14.913713420581">
        <ele>171.4</ele>
        <time>2020-02-01T10:54:21Z</time>
      </trkpt>
      <trkpt lat="56.890291838444" lon="14.91353413174">
        <ele>170.8</ele>
        <time>2020-02-01T10:54:25Z</time>
      </trkpt>
      <trkpt lat="56.890248671659" lon="14.913335564529">
        <ele>169.4</ele>
        <time>2020-02-01T10:54:29Z</time>
      </trkpt>
      <trkpt lat="56.89023350042" lon="14.913234814091">
        <ele>168.2</ele>
        <time>2020-02-01T10:54:31Z</time>
      </trkpt>
      <trkpt lat="56.890219502647" lon="14.913015208311">
        <ele>166.8</ele>
        <time>2020-02-01T10:54:35Z</time>
      </trkpt>
      <trkpt lat="56.890235009162" lon="14.912847402673">
        <ele>165.8</ele>
        <time>2020-02-01T10:54:38Z</time>
      </trkpt>
      <trkpt lat="56.890301812905" lon="14.912585887393">
        <ele>164.6</ele>
        <time>2020-02-01T10:54:44Z</time>
      </trkpt>
      <trkpt lat="56.890422512265" lon="14.912328060149">
        <ele>164.6</ele>
        <time>2020-02-01T10:54:51Z</time>
      </trkpt>
      <trkpt lat="56.890488477818" lon="14.912002255696">
        <ele>164.2</ele>
        <time>2020-02-01T10:54:58Z</time>
      </trkpt>
      <trkpt lat="56.890522089237" lon="14.911825732882">
        <ele>163.6</ele>
        <time>2020-02-01T10:55:02Z</time>
      </trkpt>
      <trkpt lat="56.89059811307" lon="14.911517865695">
        <ele>163</ele>
        <time>2020-02-01T10:55:10Z</time>
      </trkpt>
      <trkpt lat="56.890723254837" lon="14.911243442289">
        <ele>163.8</ele>
        <time>2020-02-01T10:55:18Z</time>
      </trkpt>
      <trkpt lat="56.890825597836" lon="14.910968599788">
        <ele>163.6</ele>
        <time>2020-02-01T10:55:25Z</time>
      </trkpt>
      <trkpt lat="56.890902627497" lon="14.910626534449">
        <ele>163.4</ele>
        <time>2020-02-01T10:55:32Z</time>
      </trkpt>
      <trkpt lat="56.891005305772" lon="14.910334006139">
        <ele>163.4</ele>
        <time>2020-02-01T10:55:39Z</time>
      </trkpt>
      <trkpt lat="56.891051741498" lon="14.909998897777">
        <ele>162.6</ele>
        <time>2020-02-01T10:55:49Z</time>
      </trkpt>
      <trkpt lat="56.89110857078" lon="14.909805694982">
        <ele>162.4</ele>
        <time>2020-02-01T10:55:55Z</time>
      </trkpt>
      <trkpt lat="56.89125860679" lon="14.909566727013">
        <ele>162.4</ele>
        <time>2020-02-01T10:56:01Z</time>
      </trkpt>
      <trkpt lat="56.891358099943" lon="14.90924511351">
        <ele>162.4</ele>
        <time>2020-02-01T10:56:07Z</time>
      </trkpt>
      <trkpt lat="56.891394142113" lon="14.908870023485">
        <ele>162.2</ele>
        <time>2020-02-01T10:56:14Z</time>
      </trkpt>
      <trkpt lat="56.89140277547" lon="14.908580931754">
        <ele>163.6</ele>
        <time>2020-02-01T10:56:20Z</time>
      </trkpt>
      <trkpt lat="56.89141199556" lon="14.908243308822">
        <ele>164.4</ele>
        <time>2020-02-01T10:56:27Z</time>
      </trkpt>
      <trkpt lat="56.891410486818" lon="14.908196202544">
        <ele>164.6</ele>
        <time>2020-02-01T10:56:28Z</time>
      </trkpt>
      <trkpt lat="56.89141031918" lon="14.907946421924">
        <ele>165.8</ele>
        <time>2020-02-01T10:56:34Z</time>
      </trkpt>
      <trkpt lat="56.891399757986" lon="14.907744585772">
        <ele>166.8</ele>
        <time>2020-02-01T10:56:39Z</time>
      </trkpt>
      <trkpt lat="56.891371594802" lon="14.907518190653">
        <ele>167.4</ele>
        <time>2020-02-01T10:56:44Z</time>
      </trkpt>
      <trkpt lat="56.891449965567" lon="14.907135221642">
        <ele>168.8</ele>
        <time>2020-02-01T10:59:28Z</time>
      </trkpt>
      <trkpt lat="56.891514673835" lon="14.907174113658">
        <ele>169</ele>
        <time>2020-02-01T10:59:33Z</time>
      </trkpt>
      <trkpt lat="56.89153772406" lon="14.907193056752">
        <ele>167.8</ele>
        <time>2020-02-01T10:59:34Z</time>
      </trkpt>
      <trkpt lat="56.891711816123" lon="14.907295567389">
        <ele>168</ele>
        <time>2020-02-01T10:59:41Z</time>
      </trkpt>
      <trkpt lat="56.891907198212" lon="14.907305625669">
        <ele>167.6</ele>
        <time>2020-02-01T10:59:49Z</time>
      </trkpt>
      <trkpt lat="56.892024880088" lon="14.907290873525">
        <ele>166.8</ele>
        <time>2020-02-01T10:59:54Z</time>
      </trkpt>
      <trkpt lat="56.892229649905" lon="14.907256843011">
        <ele>166.2</ele>
        <time>2020-02-01T11:00:01Z</time>
      </trkpt>
      <trkpt lat="56.89241195623" lon="14.907234547157">
        <ele>166</ele>
        <time>2020-02-01T11:00:07Z</time>
      </trkpt>
      <trkpt lat="56.892472976462" lon="14.907219375918">
        <ele>165.8</ele>
        <time>2020-02-01T11:00:09Z</time>
      </trkpt>
      <trkpt lat="56.892655701882" lon="14.90713455109">
        <ele>166.2</ele>
        <time>2020-02-01T11:00:16Z</time>
      </trkpt>
      <trkpt lat="56.892723679091" lon="14.907101107309">
        <ele>166.8</ele>
        <time>2020-02-01T11:00:19Z</time>
      </trkpt>
      <trkpt lat="56.892890814177" lon="14.907001614156">
        <ele>168</ele>
        <time>2020-02-01T11:00:25Z</time>
      </trkpt>
      <trkpt lat="56.892969184942" lon="14.906942437942">
        <ele>169.2</ele>
        <time>2020-02-01T11:00:28Z</time>
      </trkpt>
      <trkpt lat="56.89312190316" lon="14.906753342278">
        <ele>169.8</ele>
        <time>2020-02-01T11:00:36Z</time>
      </trkpt>
      <trkpt lat="56.893170266723" lon="14.906668936545">
        <ele>170.4</ele>
        <time>2020-02-01T11:00:39Z</time>
      </trkpt>
      <trkpt lat="56.893205386884" lon="14.906613280729">
        <ele>171.6</ele>
        <time>2020-02-01T11:00:41Z</time>
      </trkpt>
      <trkpt lat="56.893351315763" lon="14.906353944743">
        <ele>171.8</ele>
        <time>2020-02-01T11:00:49Z</time>
      </trkpt>
      <trkpt lat="56.893469919648" lon="14.906043562986">
        <ele>171.8</ele>
        <time>2020-02-01T11:00:57Z</time>
      </trkpt>
      <trkpt lat="56.893481402851" lon="14.905993187767">
        <ele>172</ele>
        <time>2020-02-01T11:00:58Z</time>
      </trkpt>
      <trkpt lat="56.893535298468" lon="14.905777270023">
        <ele>172.2</ele>
        <time>2020-02-01T11:01:02Z</time>
      </trkpt>
      <trkpt lat="56.893591541017" lon="14.90554282828">
        <ele>172.8</ele>
        <time>2020-02-01T11:01:07Z</time>
      </trkpt>
      <trkpt lat="56.893631606499" lon="14.905361863059">
        <ele>173.8</ele>
        <time>2020-02-01T11:01:11Z</time>
      </trkpt>
      <trkpt lat="56.893648957032" lon="14.905029520724">
        <ele>174</ele>
        <time>2020-02-01T11:01:17Z</time>
      </trkpt>
      <trkpt lat="56.893707630332" lon="14.904662896418">
        <ele>173.2</ele>
        <time>2020-02-01T11:01:24Z</time>
      </trkpt>
      <trkpt lat="56.893717772431" lon="14.904373637049">
        <ele>172.6</ele>
        <time>2020-02-01T11:01:29Z</time>
      </trkpt>
      <trkpt lat="56.893747109081" lon="14.904076666332">
        <ele>171.6</ele>
        <time>2020-02-01T11:01:34Z</time>
      </trkpt>
      <trkpt lat="56.893773931161" lon="14.903809702817">
        <ele>170.6</ele>
        <time>2020-02-01T11:01:39Z</time>
      </trkpt>
      <trkpt lat="56.893752724954" lon="14.903647932147">
        <ele>169.2</ele>
        <time>2020-02-01T11:01:42Z</time>
      </trkpt>
      <trkpt lat="56.893647196833" lon="14.903366300307">
        <ele>168.4</ele>
        <time>2020-02-01T11:01:47Z</time>
      </trkpt>
      <trkpt lat="56.89361392069" lon="14.903271752475">
        <ele>168.2</ele>
        <time>2020-02-01T11:01:49Z</time>
      </trkpt>
      <trkpt lat="56.89355524739" lon="14.903038903293">
        <ele>167.2</ele>
        <time>2020-02-01T11:01:54Z</time>
      </trkpt>
      <trkpt lat="56.893518702306" lon="14.902878641365">
        <ele>166</ele>
        <time>2020-02-01T11:01:57Z</time>
      </trkpt>
      <trkpt lat="56.893417281316" lon="14.902548562143">
        <ele>165.2</ele>
        <time>2020-02-01T11:02:04Z</time>
      </trkpt>
      <trkpt lat="56.893367828106" lon="14.902400789246">
        <ele>165.6</ele>
        <time>2020-02-01T11:02:08Z</time>
      </trkpt>
      <trkpt lat="56.89331636324" lon="14.902253267806">
        <ele>166</ele>
        <time>2020-02-01T11:02:13Z</time>
      </trkpt>
      <trkpt lat="56.893296079042" lon="14.90216492258">
        <ele>167</ele>
        <time>2020-02-01T11:02:16Z</time>
      </trkpt>
      <trkpt lat="56.893246039099" lon="14.902113960628">
        <ele>167.6</ele>
        <time>2020-02-01T11:02:19Z</time>
      </trkpt>
      <trkpt lat="56.893220893399" lon="14.901983789721">
        <ele>168.2</ele>
        <time>2020-02-01T11:02:23Z</time>
      </trkpt>
      <trkpt lat="56.893205219246" lon="14.901899970721">
        <ele>169.4</ele>
        <time>2020-02-01T11:02:25Z</time>
      </trkpt>
      <trkpt lat="56.893116706382" lon="14.901553798251">
        <ele>170.4</ele>
        <time>2020-02-01T11:02:33Z</time>
      </trkpt>
      <trkpt lat="56.893002125809" lon="14.901228831988">
        <ele>170.8</ele>
        <time>2020-02-01T11:02:40Z</time>
      </trkpt>
      <trkpt lat="56.892859717328" lon="14.900973770771">
        <ele>170.4</ele>
        <time>2020-02-01T11:02:47Z</time>
      </trkpt>
      <trkpt lat="56.892733905009" lon="14.900726420902">
        <ele>170.2</ele>
        <time>2020-02-01T11:02:53Z</time>
      </trkpt>
      <trkpt lat="56.892671711311" lon="14.900583677145">
        <ele>169.2</ele>
        <time>2020-02-01T11:02:56Z</time>
      </trkpt>
      <trkpt lat="56.89262820925" lon="14.900430875108">
        <ele>168.2</ele>
        <time>2020-02-01T11:02:59Z</time>
      </trkpt>
      <trkpt lat="56.892591747985" lon="14.900238091408">
        <ele>167.2</ele>
        <time>2020-02-01T11:03:03Z</time>
      </trkpt>
      <trkpt lat="56.892565345" lon="14.900087552484">
        <ele>166</ele>
        <time>2020-02-01T11:03:06Z</time>
      </trkpt>
      <trkpt lat="56.892545898992" lon="14.899989903349">
        <ele>165</ele>
        <time>2020-02-01T11:03:08Z</time>
      </trkpt>
      <trkpt lat="56.892540869852" lon="14.899872305292">
        <ele>163.2</ele>
        <time>2020-02-01T11:03:10Z</time>
      </trkpt>
      <trkpt lat="56.89247482048" lon="14.899571311263">
        <ele>162.2</ele>
        <time>2020-02-01T11:03:16Z</time>
      </trkpt>
      <trkpt lat="56.892432324247" lon="14.899387580015">
        <ele>161.2</ele>
        <time>2020-02-01T11:03:20Z</time>
      </trkpt>
      <trkpt lat="56.892343727564" lon="14.899057500793">
        <ele>161.8</ele>
        <time>2020-02-01T11:03:26Z</time>
      </trkpt>
      <trkpt lat="56.892325957936" lon="14.899015758931">
        <ele>162.2</ele>
        <time>2020-02-01T11:03:27Z</time>
      </trkpt>
      <trkpt lat="56.892301482788" lon="14.898936717614">
        <ele>163.2</ele>
        <time>2020-02-01T11:03:29Z</time>
      </trkpt>
      <trkpt lat="56.892288658481" lon="14.898802188119">
        <ele>164.2</ele>
        <time>2020-02-01T11:03:32Z</time>
      </trkpt>
      <trkpt lat="56.892227386792" lon="14.898486861041">
        <ele>165</ele>
        <time>2020-02-01T11:03:41Z</time>
      </trkpt>
      <trkpt lat="56.892221351824" lon="14.898456686201">
        <ele>165.4</ele>
        <time>2020-02-01T11:03:42Z</time>
      </trkpt>
      <trkpt lat="56.892205007119" lon="14.898302207784">
        <ele>166.6</ele>
        <time>2020-02-01T11:03:46Z</time>
      </trkpt>
      <trkpt lat="56.892230236638" lon="14.898073381914">
        <ele>167.8</ele>
        <time>2020-02-01T11:03:51Z</time>
      </trkpt>
      <trkpt lat="56.892264350971" lon="14.897974726951">
        <ele>169</ele>
        <time>2020-02-01T11:03:54Z</time>
      </trkpt>
      <trkpt lat="56.892388822186" lon="14.897739866113">
        <ele>170.2</ele>
        <time>2020-02-01T11:04:03Z</time>
      </trkpt>
      <trkpt lat="56.892563584801" lon="14.897527049672">
        <ele>170.6</ele>
        <time>2020-02-01T11:04:12Z</time>
      </trkpt>
      <trkpt lat="56.89273801214" lon="14.897326386986">
        <ele>170.6</ele>
        <time>2020-02-01T11:04:19Z</time>
      </trkpt>
      <trkpt lat="56.892921827207" lon="14.897173165854">
        <ele>170.8</ele>
        <time>2020-02-01T11:04:26Z</time>
      </trkpt>
      <trkpt lat="56.893109749405" lon="14.897006617501">
        <ele>170.8</ele>
        <time>2020-02-01T11:04:32Z</time>
      </trkpt>
      <trkpt lat="56.893284260563" lon="14.89680637391">
        <ele>170.6</ele>
        <time>2020-02-01T11:04:38Z</time>
      </trkpt>
      <trkpt lat="56.893460029006" lon="14.896681315962">
        <ele>170.8</ele>
        <time>2020-02-01T11:04:44Z</time>
      </trkpt>
      <trkpt lat="56.893642922064" lon="14.896569585235">
        <ele>170.8</ele>
        <time>2020-02-01T11:04:51Z</time>
      </trkpt>
      <trkpt lat="56.893815002471" lon="14.896428434039">
        <ele>170.8</ele>
        <time>2020-02-01T11:04:58Z</time>
      </trkpt>
      <trkpt lat="56.893994961864" lon="14.896243696963">
        <ele>170.6</ele>
        <time>2020-02-01T11:05:06Z</time>
      </trkpt>
      <trkpt lat="56.894172574325" lon="14.896112687866">
        <ele>171</ele>
        <time>2020-02-01T11:05:14Z</time>
      </trkpt>
      <trkpt lat="56.894294028056" lon="14.896014200541">
        <ele>171.2</ele>
        <time>2020-02-01T11:05:20Z</time>
      </trkpt>
      <trkpt lat="56.894456134002" lon="14.895812615846">
        <ele>172.4</ele>
        <time>2020-02-01T11:05:29Z</time>
      </trkpt>
      <trkpt lat="56.894600135044" lon="14.895561326484">
        <ele>172.6</ele>
        <time>2020-02-01T11:05:39Z</time>
      </trkpt>
      <trkpt lat="56.894754781099" lon="14.89532696856">
        <ele>173</ele>
        <time>2020-02-01T11:05:48Z</time>
      </trkpt>
      <trkpt lat="56.894921664728" lon="14.895182632242">
        <ele>173.2</ele>
        <time>2020-02-01T11:05:55Z</time>
      </trkpt>
      <trkpt lat="56.894986540634" lon="14.895104345296">
        <ele>173.4</ele>
        <time>2020-02-01T11:05:58Z</time>
      </trkpt>
      <trkpt lat="56.895137917748" lon="14.894895719805">
        <ele>174</ele>
        <time>2020-02-01T11:06:05Z</time>
      </trkpt>
      <trkpt lat="56.8952307892" lon="14.894747024899">
        <ele>174.4</ele>
        <time>2020-02-01T11:06:10Z</time>
      </trkpt>
      <trkpt lat="56.895317793322" lon="14.894617356906">
        <ele>175.6</ele>
        <time>2020-02-01T11:06:15Z</time>
      </trkpt>
      <trkpt lat="56.895441342528" lon="14.894399595144">
        <ele>176.6</ele>
        <time>2020-02-01T11:06:22Z</time>
      </trkpt>
      <trkpt lat="56.895536393274" lon="14.894243691804">
        <ele>177.6</ele>
        <time>2020-02-01T11:06:28Z</time>
      </trkpt>
      <trkpt lat="56.895560533146" lon="14.89416104627">
        <ele>177.8</ele>
        <time>2020-02-01T11:06:30Z</time>
      </trkpt>
      <trkpt lat="56.895567490123" lon="14.894015620305">
        <ele>178.8</ele>
        <time>2020-02-01T11:06:34Z</time>
      </trkpt>
      <trkpt lat="56.895571261978" lon="14.893882683371">
        <ele>179.8</ele>
        <time>2020-02-01T11:06:37Z</time>
      </trkpt>
      <trkpt lat="56.895555755463" lon="14.893700460865">
        <ele>181</ele>
        <time>2020-02-01T11:06:41Z</time>
      </trkpt>
      <trkpt lat="56.895537650559" lon="14.893370381643">
        <ele>181.6</ele>
        <time>2020-02-01T11:06:48Z</time>
      </trkpt>
      <trkpt lat="56.895484257856" lon="14.893034351272">
        <ele>181.8</ele>
        <time>2020-02-01T11:06:55Z</time>
      </trkpt>
      <trkpt lat="56.895452238998" lon="14.89291717231">
        <ele>182.2</ele>
        <time>2020-02-01T11:06:58Z</time>
      </trkpt>
      <trkpt lat="56.895396834639" lon="14.892604611259">
        <ele>182.4</ele>
        <time>2020-02-01T11:07:07Z</time>
      </trkpt>
      <trkpt lat="56.895389123291" lon="14.89251400292">
        <ele>182.2</ele>
        <time>2020-02-01T11:07:10Z</time>
      </trkpt>
      <trkpt lat="56.895416699742" lon="14.892234215098">
        <ele>182</ele>
        <time>2020-02-01T11:07:18Z</time>
      </trkpt>
      <trkpt lat="56.895480066906" lon="14.892186186811">
        <ele>182</ele>
        <time>2020-02-01T11:07:22Z</time>
      </trkpt>
      <trkpt lat="56.89551493561" lon="14.892181157671">
        <ele>181.6</ele>
        <time>2020-02-01T11:07:24Z</time>
      </trkpt>
      <trkpt lat="56.895724064015" lon="14.892168417183">
        <ele>181.4</ele>
        <time>2020-02-01T11:07:31Z</time>
      </trkpt>
      <trkpt lat="56.895815259087" lon="14.89210748077">
        <ele>181.6</ele>
        <time>2020-02-01T11:07:35Z</time>
      </trkpt>
      <trkpt lat="56.896007036959" lon="14.892077557387">
        <ele>181.8</ele>
        <time>2020-02-01T11:07:42Z</time>
      </trkpt>
      <trkpt lat="56.896127233405" lon="14.892036066982">
        <ele>181</ele>
        <time>2020-02-01T11:07:46Z</time>
      </trkpt>
      <trkpt lat="56.896326135892" lon="14.891966497212">
        <ele>180.6</ele>
        <time>2020-02-01T11:07:54Z</time>
      </trkpt>
      <trkpt lat="56.896511878796" lon="14.891898436184">
        <ele>180</ele>
        <time>2020-02-01T11:08:01Z</time>
      </trkpt>
      <trkpt lat="56.89653752741" lon="14.891896005433">
        <ele>179.8</ele>
        <time>2020-02-01T11:08:02Z</time>
      </trkpt>
      <trkpt lat="56.896736429897" lon="14.891805816189">
        <ele>178.8</ele>
        <time>2020-02-01T11:08:09Z</time>
      </trkpt>
      <trkpt lat="56.896767945841" lon="14.891773964969">
        <ele>178.6</ele>
        <time>2020-02-01T11:08:10Z</time>
      </trkpt>
      <trkpt lat="56.89692058024" lon="14.891675729101">
        <ele>177.6</ele>
        <time>2020-02-01T11:08:15Z</time>
      </trkpt>
      <trkpt lat="56.897100036719" lon="14.891559136872">
        <ele>176.8</ele>
        <time>2020-02-01T11:08:23Z</time>
      </trkpt>
      <trkpt lat="56.897132726129" lon="14.891519239028">
        <ele>176.4</ele>
        <time>2020-02-01T11:08:25Z</time>
      </trkpt>
      <trkpt lat="56.897292988057" lon="14.891376411452">
        <ele>175.2</ele>
        <time>2020-02-01T11:08:34Z</time>
      </trkpt>
      <trkpt lat="56.897304638898" lon="14.891360485842">
        <ele>175</ele>
        <time>2020-02-01T11:08:35Z</time>
      </trkpt>
      <trkpt lat="56.897457440935" lon="14.891252946065">
        <ele>174.2</ele>
        <time>2020-02-01T11:08:42Z</time>
      </trkpt>
      <trkpt lat="56.897555341527" lon="14.891125792642">
        <ele>173</ele>
        <time>2020-02-01T11:08:47Z</time>
      </trkpt>
      <trkpt lat="56.897714681446" lon="14.890967123275">
        <ele>172</ele>
        <time>2020-02-01T11:08:53Z</time>
      </trkpt>
      <trkpt lat="56.897891036622" lon="14.890840808042">
        <ele>171.2</ele>
        <time>2020-02-01T11:09:03Z</time>
      </trkpt>
      <trkpt lat="56.897916517598" lon="14.890803005673">
        <ele>171</ele>
        <time>2020-02-01T11:09:05Z</time>
      </trkpt>
      <trkpt lat="56.897981142047" lon="14.890590859784">
        <ele>170</ele>
        <time>2020-02-01T11:09:12Z</time>
      </trkpt>
      <trkpt lat="56.898040318261" lon="14.890269413919">
        <ele>169.2</ele>
        <time>2020-02-01T11:09:20Z</time>
      </trkpt>
      <trkpt lat="56.898081389571" lon="14.890145613256">
        <ele>169.2</ele>
        <time>2020-02-01T11:09:24Z</time>
      </trkpt>
      <trkpt lat="56.89812673565" lon="14.890066236663">
        <ele>169</ele>
        <time>2020-02-01T11:09:27Z</time>
      </trkpt>
      <trkpt lat="56.898134195541" lon="14.890032709063">
        <ele>169</ele>
        <time>2020-02-01T11:09:28Z</time>
      </trkpt>
      <trkpt lat="56.898172584643" lon="14.889889127116">
        <ele>169.2</ele>
        <time>2020-02-01T11:09:32Z</time>
      </trkpt>
      <trkpt lat="56.898216505799" lon="14.889764907358">
        <ele>169.4</ele>
        <time>2020-02-01T11:09:36Z</time>
      </trkpt>
      <trkpt lat="56.898380288125" lon="14.889580505558">
        <ele>169.8</ele>
        <time>2020-02-01T11:09:45Z</time>
      </trkpt>
      <trkpt lat="56.898549267229" lon="14.889446059882">
        <ele>169.4</ele>
        <time>2020-02-01T11:09:52Z</time>
      </trkpt>
      <trkpt lat="56.898713720107" lon="14.889311865663">
        <ele>169.6</ele>
        <time>2020-02-01T11:09:59Z</time>
      </trkpt>
      <trkpt lat="56.898793012881" lon="14.889210612311">
        <ele>169.4</ele>
        <time>2020-02-01T11:10:05Z</time>
      </trkpt>
      <trkpt lat="56.898811117785" lon="14.889211366682">
        <ele>169.2</ele>
        <time>2020-02-01T11:10:07Z</time>
      </trkpt>
      <trkpt lat="56.898843555738" lon="14.889275404398">
        <ele>169.6</ele>
        <time>2020-02-01T11:10:10Z</time>
      </trkpt>
      <trkpt lat="56.898963081632" lon="14.88939425974">
        <ele>167.8</ele>
        <time>2020-02-01T11:10:16Z</time>
      </trkpt>
      <trkpt lat="56.899070872866" lon="14.889397109586">
        <ele>166.4</ele>
        <time>2020-02-01T11:10:21Z</time>
      </trkpt>
      <trkpt lat="56.899139352989" lon="14.889387302763">
        <ele>166</ele>
        <time>2020-02-01T11:10:24Z</time>
      </trkpt>
      <trkpt lat="56.899172042399" lon="14.889379759053">
        <ele>166.2</ele>
        <time>2020-02-01T11:10:26Z</time>
      </trkpt>
      <trkpt lat="56.899362814443" lon="14.889354361896">
        <ele>166.2</ele>
        <time>2020-02-01T11:10:35Z</time>
      </trkpt>
      <trkpt lat="56.899546294234" lon="14.889242128255">
        <ele>166.6</ele>
        <time>2020-02-01T11:10:44Z</time>
      </trkpt>
      <trkpt lat="56.899746370187" lon="14.889108772226">
        <ele>166.6</ele>
        <time>2020-02-01T11:10:51Z</time>
      </trkpt>
      <trkpt lat="56.899949295986" lon="14.889013386204">
        <ele>165.8</ele>
        <time>2020-02-01T11:10:58Z</time>
      </trkpt>
      <trkpt lat="56.900131434673" lon="14.889016068412">
        <ele>166</ele>
        <time>2020-02-01T11:11:05Z</time>
      </trkpt>
      <trkpt lat="56.900314830645" lon="14.889012212738">
        <ele>165.8</ele>
        <time>2020-02-01T11:11:12Z</time>
      </trkpt>
      <trkpt lat="56.900336623585" lon="14.888984468649">
        <ele>165.6</ele>
        <time>2020-02-01T11:11:14Z</time>
      </trkpt>
      <trkpt lat="56.900381299112" lon="14.888950521954">
        <ele>165.6</ele>
        <time>2020-02-01T11:11:16Z</time>
      </trkpt>
      <trkpt lat="56.900529910199" lon="14.888860751805">
        <ele>166</ele>
        <time>2020-02-01T11:11:24Z</time>
      </trkpt>
      <trkpt lat="56.900566455283" lon="14.888838204494">
        <ele>166</ele>
        <time>2020-02-01T11:11:36Z</time>
      </trkpt>
      <trkpt lat="56.900582129436" lon="14.888769724371">
        <ele>166</ele>
        <time>2020-02-01T11:12:12Z</time>
      </trkpt>
      <trkpt lat="56.900654884328" lon="14.888774669692">
        <ele>166.2</ele>
        <time>2020-02-01T11:12:20Z</time>
      </trkpt>
      <trkpt lat="56.900694195439" lon="14.888759917548">
        <ele>166</ele>
        <time>2020-02-01T11:12:22Z</time>
      </trkpt>
      <trkpt lat="56.900742810459" lon="14.888699903144">
        <ele>166.4</ele>
        <time>2020-02-01T11:12:25Z</time>
      </trkpt>
      <trkpt lat="56.900901228369" lon="14.888648773554">
        <ele>166.2</ele>
        <time>2020-02-01T11:12:33Z</time>
      </trkpt>
      <trkpt lat="56.901044642678" lon="14.88844459047">
        <ele>166.2</ele>
        <time>2020-02-01T11:12:40Z</time>
      </trkpt>
      <trkpt lat="56.901245892097" lon="14.888383989333">
        <ele>167.4</ele>
        <time>2020-02-01T11:12:48Z</time>
      </trkpt>
      <trkpt lat="56.901273384729" lon="14.888370662112">
        <ele>167.6</ele>
        <time>2020-02-01T11:12:49Z</time>
      </trkpt>
      <trkpt lat="56.90147195194" lon="14.888414750906">
        <ele>167.8</ele>
        <time>2020-02-01T11:12:57Z</time>
      </trkpt>
      <trkpt lat="56.901669010409" lon="14.888418187485">
        <ele>167.8</ele>
        <time>2020-02-01T11:13:06Z</time>
      </trkpt>
      <trkpt lat="56.901871349475" lon="14.888317437047">
        <ele>168</ele>
        <time>2020-02-01T11:13:13Z</time>
      </trkpt>
      <trkpt lat="56.902053739619" lon="14.8882241465">
        <ele>168</ele>
        <time>2020-02-01T11:13:20Z</time>
      </trkpt>
      <trkpt lat="56.902209056226" lon="14.888118953655">
        <ele>168.6</ele>
        <time>2020-02-01T11:13:25Z</time>
      </trkpt>
      <trkpt lat="56.902407958713" lon="14.88806405221">
        <ele>168.4</ele>
        <time>2020-02-01T11:13:32Z</time>
      </trkpt>
      <trkpt lat="56.902618763498" lon="14.888026585117">
        <ele>168.6</ele>
        <time>2020-02-01T11:13:39Z</time>
      </trkpt>
      <trkpt lat="56.90282059965" lon="14.887976796631">
        <ele>169</ele>
        <time>2020-02-01T11:13:46Z</time>
      </trkpt>
      <trkpt lat="56.903007432201" lon="14.887886104473">
        <ele>169.2</ele>
        <time>2020-02-01T11:13:53Z</time>
      </trkpt>
      <trkpt lat="56.903052526823" lon="14.887809326269">
        <ele>169.6</ele>
        <time>2020-02-01T11:13:56Z</time>
      </trkpt>
      <trkpt lat="56.903068871528" lon="14.887792646288">
        <ele>169.8</ele>
        <time>2020-02-01T11:13:57Z</time>
      </trkpt>
      <trkpt lat="56.903136848737" lon="14.887672868937">
        <ele>170.6</ele>
        <time>2020-02-01T11:14:02Z</time>
      </trkpt>
      <trkpt lat="56.90321454895" lon="14.887449407483">
        <ele>171.8</ele>
        <time>2020-02-01T11:14:08Z</time>
      </trkpt>
      <trkpt lat="56.903319490338" lon="14.887287972089">
        <ele>172.8</ele>
        <time>2020-02-01T11:14:13Z</time>
      </trkpt>
      <trkpt lat="56.903480422818" lon="14.8870758262">
        <ele>173.2</ele>
        <time>2020-02-01T11:14:21Z</time>
      </trkpt>
      <trkpt lat="56.903575054469" lon="14.886792266523">
        <ele>173.6</ele>
        <time>2020-02-01T11:14:28Z</time>
      </trkpt>
      <trkpt lat="56.903682175151" lon="14.886529913053">
        <ele>173.6</ele>
        <time>2020-02-01T11:14:35Z</time>
      </trkpt>
      <trkpt lat="56.90387001353" lon="14.886468222269">
        <ele>173.8</ele>
        <time>2020-02-01T11:14:42Z</time>
      </trkpt>
      <trkpt lat="56.903990629071" lon="14.886439975266">
        <ele>173.8</ele>
        <time>2020-02-01T11:14:47Z</time>
      </trkpt>
      <trkpt lat="56.90416757098" lon="14.886359928121">
        <ele>172.8</ele>
        <time>2020-02-01T11:14:53Z</time>
      </trkpt>
      <trkpt lat="56.90430251957" lon="14.886233612888">
        <ele>171.6</ele>
        <time>2020-02-01T11:14:58Z</time>
      </trkpt>
      <trkpt lat="56.904415256125" lon="14.886058012083">
        <ele>170.6</ele>
        <time>2020-02-01T11:15:04Z</time>
      </trkpt>
      <trkpt lat="56.904453142313" lon="14.885903617485">
        <ele>169.2</ele>
        <time>2020-02-01T11:15:08Z</time>
      </trkpt>
      <trkpt lat="56.904523466454" lon="14.885756263683">
        <ele>168.6</ele>
        <time>2020-02-01T11:15:12Z</time>
      </trkpt>
      <trkpt lat="56.904573674035" lon="14.885725585929">
        <ele>168.2</ele>
        <time>2020-02-01T11:15:14Z</time>
      </trkpt>
      <trkpt lat="56.904624971263" lon="14.885729190146">
        <ele>168.2</ele>
        <time>2020-02-01T11:15:16Z</time>
      </trkpt>
      <trkpt lat="56.904806774674" lon="14.88582943767">
        <ele>168.4</ele>
        <time>2020-02-01T11:15:24Z</time>
      </trkpt>
      <trkpt lat="56.904996792347" lon="14.885894313576">
        <ele>168</ele>
        <time>2020-02-01T11:15:30Z</time>
      </trkpt>
      <trkpt lat="56.905198963775" lon="14.885945862261">
        <ele>167.4</ele>
        <time>2020-02-01T11:15:38Z</time>
      </trkpt>
      <trkpt lat="56.905386969792" lon="14.885992297987">
        <ele>167.2</ele>
        <time>2020-02-01T11:15:46Z</time>
      </trkpt>
      <trkpt lat="56.905415216795" lon="14.88599875205">
        <ele>167</ele>
        <time>2020-02-01T11:15:47Z</time>
      </trkpt>
      <trkpt lat="56.905614119282" lon="14.886121463066">
        <ele>166.4</ele>
        <time>2020-02-01T11:15:54Z</time>
      </trkpt>
      <trkpt lat="56.905793240485" lon="14.886339224828">
        <ele>167</ele>
        <time>2020-02-01T11:16:00Z</time>
      </trkpt>
      <trkpt lat="56.905930955102" lon="14.886606691257">
        <ele>167</ele>
        <time>2020-02-01T11:16:06Z</time>
      </trkpt>
      <trkpt lat="56.906025419115" lon="14.886910786589">
        <ele>167</ele>
        <time>2020-02-01T11:16:13Z</time>
      </trkpt>
      <trkpt lat="56.906203953585" lon="14.886955210659">
        <ele>166.8</ele>
        <time>2020-02-01T11:16:21Z</time>
      </trkpt>
      <trkpt lat="56.906363461142" lon="14.886854711678">
        <ele>168.2</ele>
        <time>2020-02-01T11:16:27Z</time>
      </trkpt>
      <trkpt lat="56.90643571312" lon="14.886805007011">
        <ele>169.4</ele>
        <time>2020-02-01T11:16:30Z</time>
      </trkpt>
      <trkpt lat="56.906628245363" lon="14.886687408954">
        <ele>169.6</ele>
        <time>2020-02-01T11:16:37Z</time>
      </trkpt>
      <trkpt lat="56.90679362025" lon="14.886594286045">
        <ele>170.4</ele>
        <time>2020-02-01T11:16:43Z</time>
      </trkpt>
      <trkpt lat="56.906986068674" lon="14.886550448708">
        <ele>170.8</ele>
        <time>2020-02-01T11:16:52Z</time>
      </trkpt>
      <trkpt lat="56.907179606745" lon="14.886593699312">
        <ele>169.8</ele>
        <time>2020-02-01T11:17:01Z</time>
      </trkpt>
      <trkpt lat="56.907246829583" lon="14.886572744562">
        <ele>169</ele>
        <time>2020-02-01T11:17:04Z</time>
      </trkpt>
      <trkpt lat="56.907443552776" lon="14.886567799241">
        <ele>168.6</ele>
        <time>2020-02-01T11:17:10Z</time>
      </trkpt>
      <trkpt lat="56.907556289331" lon="14.886555645486">
        <ele>168</ele>
        <time>2020-02-01T11:17:14Z</time>
      </trkpt>
      <trkpt lat="56.907746223185" lon="14.886528236673">
        <ele>167.4</ele>
        <time>2020-02-01T11:17:21Z</time>
      </trkpt>
      <trkpt lat="56.907930457347" lon="14.886464618052">
        <ele>167.4</ele>
        <time>2020-02-01T11:17:28Z</time>
      </trkpt>
      <trkpt lat="56.908122067581" lon="14.886427737692">
        <ele>167.6</ele>
        <time>2020-02-01T11:17:35Z</time>
      </trkpt>
      <trkpt lat="56.908315018919" lon="14.886409046055">
        <ele>167.2</ele>
        <time>2020-02-01T11:17:42Z</time>
      </trkpt>
      <trkpt lat="56.908515597786" lon="14.886387336934">
        <ele>167</ele>
        <time>2020-02-01T11:17:49Z</time>
      </trkpt>
      <trkpt lat="56.908568487575" lon="14.886387169296">
        <ele>166.8</ele>
        <time>2020-02-01T11:17:51Z</time>
      </trkpt>
      <trkpt lat="56.908750123348" lon="14.886335955887">
        <ele>166.6</ele>
        <time>2020-02-01T11:17:59Z</time>
      </trkpt>
      <trkpt lat="56.908954306432" lon="14.886263871547">
        <ele>165.6</ele>
        <time>2020-02-01T11:18:06Z</time>
      </trkpt>
      <trkpt lat="56.909144324105" lon="14.886134371192">
        <ele>165</ele>
        <time>2020-02-01T11:18:13Z</time>
      </trkpt>
      <trkpt lat="56.909323612946" lon="14.885982407345">
        <ele>165.6</ele>
        <time>2020-02-01T11:18:20Z</time>
      </trkpt>
      <trkpt lat="56.90949259205" lon="14.885794988061">
        <ele>164.8</ele>
        <time>2020-02-01T11:18:28Z</time>
      </trkpt>
      <trkpt lat="56.909612201763" lon="14.885666996448">
        <ele>164.6</ele>
        <time>2020-02-01T11:18:33Z</time>
      </trkpt>
      <trkpt lat="56.90962502607" lon="14.885658614548">
        <ele>164.2</ele>
        <time>2020-02-01T11:18:34Z</time>
      </trkpt>
      <trkpt lat="56.909689985795" lon="14.885576891023">
        <ele>164.2</ele>
        <time>2020-02-01T11:19:14Z</time>
      </trkpt>
      <trkpt lat="56.909722088472" lon="14.885544201613">
        <ele>163.8</ele>
        <time>2020-02-01T11:19:17Z</time>
      </trkpt>
      <trkpt lat="56.909828873878" lon="14.885513523859">
        <ele>163.6</ele>
        <time>2020-02-01T11:19:21Z</time>
      </trkpt>
      <trkpt lat="56.909988632892" lon="14.885299953047">
        <ele>163.4</ele>
        <time>2020-02-01T11:19:29Z</time>
      </trkpt>
      <trkpt lat="56.910051916237" lon="14.884991666765">
        <ele>163</ele>
        <time>2020-02-01T11:19:36Z</time>
      </trkpt>
      <trkpt lat="56.910107572053" lon="14.885087723339">
        <ele>162.8</ele>
        <time>2020-02-01T11:19:42Z</time>
      </trkpt>
      <trkpt lat="56.910141267291" lon="14.885056039757">
        <ele>162.8</ele>
        <time>2020-02-01T11:19:44Z</time>
      </trkpt>
      <trkpt lat="56.910170268665" lon="14.885003569063">
        <ele>163</ele>
        <time>2020-02-01T11:19:46Z</time>
      </trkpt>
      <trkpt lat="56.910209579776" lon="14.884949421989">
        <ele>162.6</ele>
        <time>2020-02-01T11:19:49Z</time>
      </trkpt>
      <trkpt lat="56.91022517011" lon="14.884943638478">
        <ele>162.4</ele>
        <time>2020-02-01T11:19:50Z</time>
      </trkpt>
      <trkpt lat="56.910268253076" lon="14.884940704813">
        <ele>161.8</ele>
        <time>2020-02-01T11:19:54Z</time>
      </trkpt>
      <trkpt lat="56.910302032133" lon="14.884898460037">
        <ele>162.2</ele>
        <time>2020-02-01T11:19:57Z</time>
      </trkpt>
      <trkpt lat="56.910354083732" lon="14.884872979061">
        <ele>162.4</ele>
        <time>2020-02-01T11:20:00Z</time>
      </trkpt>
      <trkpt lat="56.910441171673" lon="14.884871973233">
        <ele>161.2</ele>
        <time>2020-02-01T11:20:06Z</time>
      </trkpt>
      <trkpt lat="56.910452906333" lon="14.884874906898">
        <ele>161.2</ele>
        <time>2020-02-01T11:20:07Z</time>
      </trkpt>
      <trkpt lat="56.910521470275" lon="14.884885384273">
        <ele>161</ele>
        <time>2020-02-01T11:20:11Z</time>
      </trkpt>
      <trkpt lat="56.910557596264" lon="14.884892425069">
        <ele>161</ele>
        <time>2020-02-01T11:20:13Z</time>
      </trkpt>
      <trkpt lat="56.910748703584" lon="14.884982614313">
        <ele>162</ele>
        <time>2020-02-01T11:20:22Z</time>
      </trkpt>
      <trkpt lat="56.910884071269" lon="14.885031899885">
        <ele>162</ele>
        <time>2020-02-01T11:20:27Z</time>
      </trkpt>
      <trkpt lat="56.910987420096" lon="14.88505495011">
        <ele>162.4</ele>
        <time>2020-02-01T11:20:31Z</time>
      </trkpt>
      <trkpt lat="56.911142401427" lon="14.885147402467">
        <ele>163.4</ele>
        <time>2020-02-01T11:20:39Z</time>
      </trkpt>
      <trkpt lat="56.911179617063" lon="14.885163663353">
        <ele>163.6</ele>
        <time>2020-02-01T11:20:40Z</time>
      </trkpt>
      <trkpt lat="56.911373406591" lon="14.885170368873">
        <ele>164.2</ele>
        <time>2020-02-01T11:20:47Z</time>
      </trkpt>
      <trkpt lat="56.911511959398" lon="14.885230886191">
        <ele>164</ele>
        <time>2020-02-01T11:20:54Z</time>
      </trkpt>
      <trkpt lat="56.911625953238" lon="14.885265419619">
        <ele>164.8</ele>
        <time>2020-02-01T11:21:00Z</time>
      </trkpt>
      <trkpt lat="56.911814797445" lon="14.885216888418">
        <ele>164.6</ele>
        <time>2020-02-01T11:21:05Z</time>
      </trkpt>
      <trkpt lat="56.911990901164" lon="14.88516140024">
        <ele>164</ele>
        <time>2020-02-01T11:21:11Z</time>
      </trkpt>
      <trkpt lat="56.912108163945" lon="14.885112533763">
        <ele>163.6</ele>
        <time>2020-02-01T11:21:16Z</time>
      </trkpt>
      <trkpt lat="56.912233221893" lon="14.884943303202">
        <ele>163.2</ele>
        <time>2020-02-01T11:21:24Z</time>
      </trkpt>
      <trkpt lat="56.912207238003" lon="14.884713136228">
        <ele>162.8</ele>
        <time>2020-02-01T11:21:31Z</time>
      </trkpt>
      <trkpt lat="56.912216290455" lon="14.884644656105">
        <ele>162.4</ele>
        <time>2020-02-01T11:21:33Z</time>
      </trkpt>
      <trkpt lat="56.912219978491" lon="14.884623785174">
        <ele>162.2</ele>
        <time>2020-02-01T11:21:34Z</time>
      </trkpt>
      <trkpt lat="56.912253170815" lon="14.884597549827">
        <ele>161.8</ele>
        <time>2020-02-01T11:21:37Z</time>
      </trkpt>
      <trkpt lat="56.912297846342" lon="14.884558657811">
        <ele>161.8</ele>
        <time>2020-02-01T11:21:41Z</time>
      </trkpt>
      <trkpt lat="56.912357106375" lon="14.884545414409">
        <ele>162</ele>
        <time>2020-02-01T11:21:44Z</time>
      </trkpt>
      <trkpt lat="56.912401865721" lon="14.884533931206">
        <ele>162</ele>
        <time>2020-02-01T11:21:46Z</time>
      </trkpt>
      <trkpt lat="56.91243212438" lon="14.884515323388">
        <ele>162</ele>
        <time>2020-02-01T11:21:48Z</time>
      </trkpt>
      <trkpt lat="56.912487780196" lon="14.884502331443">
        <ele>162.2</ele>
        <time>2020-02-01T11:21:51Z</time>
      </trkpt>
      <trkpt lat="56.912518793226" lon="14.88445648245">
        <ele>162.4</ele>
        <time>2020-02-01T11:21:53Z</time>
      </trkpt>
      <trkpt lat="56.912622142053" lon="14.884319941299">
        <ele>162.2</ele>
        <time>2020-02-01T11:22:00Z</time>
      </trkpt>
      <trkpt lat="56.912626668279" lon="14.884241486715">
        <ele>162.2</ele>
        <time>2020-02-01T11:22:03Z</time>
      </trkpt>
      <trkpt lat="56.91264251007" lon="14.884179209198">
        <ele>162.2</ele>
        <time>2020-02-01T11:22:06Z</time>
      </trkpt>
      <trkpt lat="56.912673439281" lon="14.884060689132">
        <ele>162.2</ele>
        <time>2020-02-01T11:22:11Z</time>
      </trkpt>
      <trkpt lat="56.912584088227" lon="14.88382029624">
        <ele>162.2</ele>
        <time>2020-02-01T11:22:20Z</time>
      </trkpt>
      <trkpt lat="56.912536981949" lon="14.883680737605">
        <ele>161.2</ele>
        <time>2020-02-01T11:22:24Z</time>
      </trkpt>
      <trkpt lat="56.912487528739" lon="14.883543274445">
        <ele>161.8</ele>
        <time>2020-02-01T11:22:29Z</time>
      </trkpt>
      <trkpt lat="56.9124388299" lon="14.883367254545">
        <ele>162.4</ele>
        <time>2020-02-01T11:22:39Z</time>
      </trkpt>
      <trkpt lat="56.91243463895" lon="14.883287877952">
        <ele>162.6</ele>
        <time>2020-02-01T11:22:42Z</time>
      </trkpt>
      <trkpt lat="56.912402452454" lon="14.883220571295">
        <ele>162.2</ele>
        <time>2020-02-01T11:22:45Z</time>
      </trkpt>
      <trkpt lat="56.912351406683" lon="14.883183774754">
        <ele>162</ele>
        <time>2020-02-01T11:22:48Z</time>
      </trkpt>
      <trkpt lat="56.912330535752" lon="14.883121748694">
        <ele>162.2</ele>
        <time>2020-02-01T11:22:51Z</time>
      </trkpt>
      <trkpt lat="56.91231645416" lon="14.883042288282">
        <ele>162.2</ele>
        <time>2020-02-01T11:22:53Z</time>
      </trkpt>
      <trkpt lat="56.912293739211" lon="14.882970790675">
        <ele>161.8</ele>
        <time>2020-02-01T11:22:55Z</time>
      </trkpt>
      <trkpt lat="56.912277562144" lon="14.882857299749">
        <ele>162.6</ele>
        <time>2020-02-01T11:23:01Z</time>
      </trkpt>
      <trkpt lat="56.912267922959" lon="14.882822431045">
        <ele>162.8</ele>
        <time>2020-02-01T11:23:03Z</time>
      </trkpt>
      <trkpt lat="56.912246716752" lon="14.882789741635">
        <ele>162.6</ele>
        <time>2020-02-01T11:23:05Z</time>
      </trkpt>
      <trkpt lat="56.912162059562" lon="14.882705000626">
        <ele>162.8</ele>
        <time>2020-02-01T11:23:11Z</time>
      </trkpt>
      <trkpt lat="56.912115707655" lon="14.88267951965">
        <ele>162.8</ele>
        <time>2020-02-01T11:23:14Z</time>
      </trkpt>
      <trkpt lat="56.912092825068" lon="14.882591342062">
        <ele>162.8</ele>
        <time>2020-02-01T11:23:18Z</time>
      </trkpt>
      <trkpt lat="56.912060470934" lon="14.882519676817">
        <ele>162.6</ele>
        <time>2020-02-01T11:23:21Z</time>
      </trkpt>
      <trkpt lat="56.912066841178" lon="14.882449101219">
        <ele>162.4</ele>
        <time>2020-02-01T11:23:24Z</time>
      </trkpt>
      <trkpt lat="56.912066841178" lon="14.882376681603">
        <ele>162.4</ele>
        <time>2020-02-01T11:23:26Z</time>
      </trkpt>
      <trkpt lat="56.912048484817" lon="14.882266375799">
        <ele>163</ele>
        <time>2020-02-01T11:23:30Z</time>
      </trkpt>
      <trkpt lat="56.912043288039" lon="14.882129750829">
        <ele>163</ele>
        <time>2020-02-01T11:23:34Z</time>
      </trkpt>
      <trkpt lat="56.911987213128" lon="14.881812998828">
        <ele>163</ele>
        <time>2020-02-01T11:23:41Z</time>
      </trkpt>
      <trkpt lat="56.911928288371" lon="14.881487948746">
        <ele>162.4</ele>
        <time>2020-02-01T11:23:48Z</time>
      </trkpt>
      <trkpt lat="56.911919403557" lon="14.881400106434">
        <ele>162.6</ele>
        <time>2020-02-01T11:23:50Z</time>
      </trkpt>
      <trkpt lat="56.911912111304" lon="14.881312096484">
        <ele>162.4</ele>
        <time>2020-02-01T11:23:52Z</time>
      </trkpt>
      <trkpt lat="56.911883612844" lon="14.880976652846">
        <ele>161.6</ele>
        <time>2020-02-01T11:24:01Z</time>
      </trkpt>
      <trkpt lat="56.911885792138" lon="14.880823599352">
        <ele>161.4</ele>
        <time>2020-02-01T11:24:06Z</time>
      </trkpt>
      <trkpt lat="56.911919906471" lon="14.880726704588">
        <ele>161.4</ele>
        <time>2020-02-01T11:24:10Z</time>
      </trkpt>
      <trkpt lat="56.911939939212" lon="14.880659062655">
        <ele>161.4</ele>
        <time>2020-02-01T11:24:12Z</time>
      </trkpt>
      <trkpt lat="56.911972209527" lon="14.880566610298">
        <ele>161.6</ele>
        <time>2020-02-01T11:24:15Z</time>
      </trkpt>
      <trkpt lat="56.912004396023" lon="14.880451275354">
        <ele>161.2</ele>
        <time>2020-02-01T11:24:18Z</time>
      </trkpt>
      <trkpt lat="56.912106571384" lon="14.880213480851">
        <ele>162.2</ele>
        <time>2020-02-01T11:24:26Z</time>
      </trkpt>
      <trkpt lat="56.912220397586" lon="14.879924305301">
        <ele>161.8</ele>
        <time>2020-02-01T11:24:35Z</time>
      </trkpt>
      <trkpt lat="56.912266665674" lon="14.879829003098">
        <ele>161.4</ele>
        <time>2020-02-01T11:24:38Z</time>
      </trkpt>
      <trkpt lat="56.912286446958" lon="14.879813077488">
        <ele>161.2</ele>
        <time>2020-02-01T11:24:39Z</time>
      </trkpt>
      <trkpt lat="56.912302707844" lon="14.879786339227">
        <ele>161.2</ele>
        <time>2020-02-01T11:24:40Z</time>
      </trkpt>
      <trkpt lat="56.912351071407" lon="14.879683409495">
        <ele>161.6</ele>
        <time>2020-02-01T11:24:45Z</time>
      </trkpt>
      <trkpt lat="56.912365236818" lon="14.879633788647">
        <ele>161.8</ele>
        <time>2020-02-01T11:24:47Z</time>
      </trkpt>
      <trkpt lat="56.912491384413" lon="14.879468832855">
        <ele>162</ele>
        <time>2020-02-01T11:24:56Z</time>
      </trkpt>
      <trkpt lat="56.912529270601" lon="14.879420050197">
        <ele>162</ele>
        <time>2020-02-01T11:24:59Z</time>
      </trkpt>
      <trkpt lat="56.912550225351" lon="14.87941141684">
        <ele>162.2</ele>
        <time>2020-02-01T11:25:00Z</time>
      </trkpt>
      <trkpt lat="56.912639492586" lon="14.879312426601">
        <ele>162.6</ele>
        <time>2020-02-01T11:25:05Z</time>
      </trkpt>
      <trkpt lat="56.912684251932" lon="14.87920354572">
        <ele>162</ele>
        <time>2020-02-01T11:25:09Z</time>
      </trkpt>
      <trkpt lat="56.912696824782" lon="14.879112769743">
        <ele>161.8</ele>
        <time>2020-02-01T11:25:12Z</time>
      </trkpt>
      <trkpt lat="56.912723227767" lon="14.878989974908">
        <ele>162</ele>
        <time>2020-02-01T11:25:15Z</time>
      </trkpt>
      <trkpt lat="56.912697160058" lon="14.878766513454">
        <ele>162.2</ele>
        <time>2020-02-01T11:25:20Z</time>
      </trkpt>
      <trkpt lat="56.912728424545" lon="14.878398715682">
        <ele>162</ele>
        <time>2020-02-01T11:25:29Z</time>
      </trkpt>
      <trkpt lat="56.91273052002" lon="14.878334007414">
        <ele>161.6</ele>
        <time>2020-02-01T11:25:31Z</time>
      </trkpt>
      <trkpt lat="56.912889189387" lon="14.878074000876">
        <ele>162.2</ele>
        <time>2020-02-01T11:25:42Z</time>
      </trkpt>
      <trkpt lat="56.912964458849" lon="14.877969813859">
        <ele>162.4</ele>
        <time>2020-02-01T11:25:47Z</time>
      </trkpt>
      <trkpt lat="56.91299790263" lon="14.877897561881">
        <ele>161.8</ele>
        <time>2020-02-01T11:25:50Z</time>
      </trkpt>
      <trkpt lat="56.913036710827" lon="14.877845342644">
        <ele>161.6</ele>
        <time>2020-02-01T11:25:53Z</time>
      </trkpt>
      <trkpt lat="56.91304651765" lon="14.877847270481">
        <ele>161.8</ele>
        <time>2020-02-01T11:25:55Z</time>
      </trkpt>
      <trkpt lat="56.913069567875" lon="14.877829417034">
        <ele>162.4</ele>
        <time>2020-02-01T11:25:58Z</time>
      </trkpt>
      <trkpt lat="56.913116003601" lon="14.87782137041">
        <ele>162.4</ele>
        <time>2020-02-01T11:26:00Z</time>
      </trkpt>
      <trkpt lat="56.913251203648" lon="14.877730342976">
        <ele>162.2</ele>
        <time>2020-02-01T11:26:07Z</time>
      </trkpt>
      <trkpt lat="56.913293280786" lon="14.877730091519">
        <ele>162</ele>
        <time>2020-02-01T11:26:09Z</time>
      </trkpt>
      <trkpt lat="56.913469887419" lon="14.877604698295">
        <ele>161.4</ele>
        <time>2020-02-01T11:26:18Z</time>
      </trkpt>
      <trkpt lat="56.913618079411" lon="14.877543258968">
        <ele>162.2</ele>
        <time>2020-02-01T11:26:25Z</time>
      </trkpt>
      <trkpt lat="56.913741041884" lon="14.877638812628">
        <ele>162.8</ele>
        <time>2020-02-01T11:26:33Z</time>
      </trkpt>
      <trkpt lat="56.913772893104" lon="14.877680051576">
        <ele>163.2</ele>
        <time>2020-02-01T11:26:35Z</time>
      </trkpt>
      <trkpt lat="56.913796865338" lon="14.877706706018">
        <ele>163.4</ele>
        <time>2020-02-01T11:26:37Z</time>
      </trkpt>
      <trkpt lat="56.913822262495" lon="14.877767139517">
        <ele>163.6</ele>
        <time>2020-02-01T11:26:40Z</time>
      </trkpt>
      <trkpt lat="56.913836847001" lon="14.877855317105">
        <ele>163.8</ele>
        <time>2020-02-01T11:26:43Z</time>
      </trkpt>
      <trkpt lat="56.913825699074" lon="14.878001832717">
        <ele>163.4</ele>
        <time>2020-02-01T11:26:48Z</time>
      </trkpt>
      <trkpt lat="56.913841205589" lon="14.878052627031">
        <ele>163.2</ele>
        <time>2020-02-01T11:26:50Z</time>
      </trkpt>
      <trkpt lat="56.913835757354" lon="14.878112473797">
        <ele>163.4</ele>
        <time>2020-02-01T11:26:52Z</time>
      </trkpt>
      <trkpt lat="56.913858388484" lon="14.878360997132">
        <ele>163.2</ele>
        <time>2020-02-01T11:27:01Z</time>
      </trkpt>
      <trkpt lat="56.913858807579" lon="14.87846929128">
        <ele>163.2</ele>
        <time>2020-02-01T11:27:04Z</time>
      </trkpt>
      <trkpt lat="56.913862579434" lon="14.878535759747">
        <ele>163.2</ele>
        <time>2020-02-01T11:27:06Z</time>
      </trkpt>
      <trkpt lat="56.913876493388" lon="14.878633911796">
        <ele>163.4</ele>
        <time>2020-02-01T11:27:08Z</time>
      </trkpt>
      <trkpt lat="56.913894933568" lon="14.87866794231">
        <ele>163.2</ele>
        <time>2020-02-01T11:27:10Z</time>
      </trkpt>
      <trkpt lat="56.913933657946" lon="14.878779756856">
        <ele>163.8</ele>
        <time>2020-02-01T11:27:16Z</time>
      </trkpt>
      <trkpt lat="56.913958971284" lon="14.878829210066">
        <ele>163.8</ele>
        <time>2020-02-01T11:27:20Z</time>
      </trkpt>
      <trkpt lat="56.913995432549" lon="14.878889140651">
        <ele>163</ele>
        <time>2020-02-01T11:27:23Z</time>
      </trkpt>
      <trkpt lat="56.91404731651" lon="14.87891688474">
        <ele>163.2</ele>
        <time>2020-02-01T11:27:26Z</time>
      </trkpt>
      <trkpt lat="56.914186791326" lon="14.879017383721">
        <ele>164.2</ele>
        <time>2020-02-01T11:27:32Z</time>
      </trkpt>
      <trkpt lat="56.914378653017" lon="14.879106567137">
        <ele>164.2</ele>
        <time>2020-02-01T11:27:41Z</time>
      </trkpt>
      <trkpt lat="56.914559869695" lon="14.879003302129">
        <ele>163.8</ele>
        <time>2020-02-01T11:27:49Z</time>
      </trkpt>
      <trkpt lat="56.914614603502" lon="14.878944461191">
        <ele>163.8</ele>
        <time>2020-02-01T11:27:54Z</time>
      </trkpt>
      <trkpt lat="56.914624913239" lon="14.87897220528">
        <ele>163.2</ele>
        <time>2020-02-01T11:27:56Z</time>
      </trkpt>
      <trkpt lat="56.914668163843" lon="14.879038589928">
        <ele>162.6</ele>
        <time>2020-02-01T11:28:00Z</time>
      </trkpt>
      <trkpt lat="56.914705379479" lon="14.879069519139">
        <ele>162.8</ele>
        <time>2020-02-01T11:28:03Z</time>
      </trkpt>
      <trkpt lat="56.91474552878" lon="14.879084606559">
        <ele>162.8</ele>
        <time>2020-02-01T11:28:05Z</time>
      </trkpt>
      <trkpt lat="56.914884919777" lon="14.879079158324">
        <ele>162.4</ele>
        <time>2020-02-01T11:28:10Z</time>
      </trkpt>
      <trkpt lat="56.914942671068" lon="14.879051498054">
        <ele>162.6</ele>
        <time>2020-02-01T11:28:14Z</time>
      </trkpt>
      <trkpt lat="56.914971337166" lon="14.879050827502">
        <ele>162.4</ele>
        <time>2020-02-01T11:28:16Z</time>
      </trkpt>
      <trkpt lat="56.915058928021" lon="14.879028950743">
        <ele>162.8</ele>
        <time>2020-02-01T11:28:20Z</time>
      </trkpt>
      <trkpt lat="56.915171580757" lon="14.879041523593">
        <ele>163.4</ele>
        <time>2020-02-01T11:28:25Z</time>
      </trkpt>
      <trkpt lat="56.915239138871" lon="14.879054180262">
        <ele>163.2</ele>
        <time>2020-02-01T11:28:36Z</time>
      </trkpt>
      <trkpt lat="56.915283227665" lon="14.879068261854">
        <ele>163.6</ele>
        <time>2020-02-01T11:28:58Z</time>
      </trkpt>
      <trkpt lat="56.915215334275" lon="14.879048145294">
        <ele>163.6</ele>
        <time>2020-02-01T11:29:03Z</time>
      </trkpt>
      <trkpt lat="56.915082732617" lon="14.879036410634">
        <ele>163.2</ele>
        <time>2020-02-01T11:29:10Z</time>
      </trkpt>
      <trkpt lat="56.915045936076" lon="14.879059209402">
        <ele>163.4</ele>
        <time>2020-02-01T11:29:12Z</time>
      </trkpt>
      <trkpt lat="56.914996901961" lon="14.879069183863">
        <ele>163.2</ele>
        <time>2020-02-01T11:29:15Z</time>
      </trkpt>
      <trkpt lat="56.914953148443" lon="14.879087624043">
        <ele>162.8</ele>
        <time>2020-02-01T11:29:17Z</time>
      </trkpt>
      <trkpt lat="56.914804704994" lon="14.879038841385">
        <ele>162.8</ele>
        <time>2020-02-01T11:29:24Z</time>
      </trkpt>
      <trkpt lat="56.914712252637" lon="14.878950663797">
        <ele>162.8</ele>
        <time>2020-02-01T11:29:29Z</time>
      </trkpt>
      <trkpt lat="56.914662967065" lon="14.878978156429">
        <ele>162.8</ele>
        <time>2020-02-01T11:29:32Z</time>
      </trkpt>
      <trkpt lat="56.914518714566" lon="14.879104974576">
        <ele>164.4</ele>
        <time>2020-02-01T11:29:39Z</time>
      </trkpt>
      <trkpt lat="56.914473452306" lon="14.879127354249">
        <ele>164.4</ele>
        <time>2020-02-01T11:29:41Z</time>
      </trkpt>
      <trkpt lat="56.914282596443" lon="14.879035572444">
        <ele>164.2</ele>
        <time>2020-02-01T11:29:51Z</time>
      </trkpt>
      <trkpt lat="56.914157035581" lon="14.878928116486">
        <ele>163.6</ele>
        <time>2020-02-01T11:29:58Z</time>
      </trkpt>
      <trkpt lat="56.914123172705" lon="14.878890565574">
        <ele>163.4</ele>
        <time>2020-02-01T11:30:00Z</time>
      </trkpt>
      <trkpt lat="56.914039521343" lon="14.87886324058">
        <ele>163.2</ele>
        <time>2020-02-01T11:30:05Z</time>
      </trkpt>
      <trkpt lat="56.914012866901" lon="14.878842369649">
        <ele>163.4</ele>
        <time>2020-02-01T11:30:07Z</time>
      </trkpt>
      <trkpt lat="56.913954696515" lon="14.87877103968">
        <ele>163.8</ele>
        <time>2020-02-01T11:30:11Z</time>
      </trkpt>
      <trkpt lat="56.913877918311" lon="14.878494688437">
        <ele>164</ele>
        <time>2020-02-01T11:30:20Z</time>
      </trkpt>
      <trkpt lat="56.91387548756" lon="14.878440122268">
        <ele>164</ele>
        <time>2020-02-01T11:30:22Z</time>
      </trkpt>
      <trkpt lat="56.913890239704" lon="14.878221270859">
        <ele>163.6</ele>
        <time>2020-02-01T11:30:27Z</time>
      </trkpt>
      <trkpt lat="56.913876577207" lon="14.878119263136">
        <ele>163.6</ele>
        <time>2020-02-01T11:30:30Z</time>
      </trkpt>
      <trkpt lat="56.913889233876" lon="14.87800074307">
        <ele>164.4</ele>
        <time>2020-02-01T11:30:33Z</time>
      </trkpt>
      <trkpt lat="56.913811533663" lon="14.877698910851">
        <ele>163.6</ele>
        <time>2020-02-01T11:30:42Z</time>
      </trkpt>
      <trkpt lat="56.913707430465" lon="14.877574271998">
        <ele>163.2</ele>
        <time>2020-02-01T11:30:49Z</time>
      </trkpt>
      <trkpt lat="56.913502241553" lon="14.877637555343">
        <ele>163.8</ele>
        <time>2020-02-01T11:30:59Z</time>
      </trkpt>
      <trkpt lat="56.913442646244" lon="14.87767384897">
        <ele>163.2</ele>
        <time>2020-02-01T11:31:02Z</time>
      </trkpt>
      <trkpt lat="56.913402413124" lon="14.877707963303">
        <ele>162.8</ele>
        <time>2020-02-01T11:31:04Z</time>
      </trkpt>
      <trkpt lat="56.913285317981" lon="14.877743921654">
        <ele>162.6</ele>
        <time>2020-02-01T11:31:10Z</time>
      </trkpt>
      <trkpt lat="56.913254640227" lon="14.877753141744">
        <ele>162.6</ele>
        <time>2020-02-01T11:31:12Z</time>
      </trkpt>
      <trkpt lat="56.91310183819" lon="14.877784406231">
        <ele>162.8</ele>
        <time>2020-02-01T11:31:21Z</time>
      </trkpt>
      <trkpt lat="56.913047858754" lon="14.877841403151">
        <ele>162.6</ele>
        <time>2020-02-01T11:31:24Z</time>
      </trkpt>
      <trkpt lat="56.913015001706" lon="14.877869901611">
        <ele>162.6</ele>
        <time>2020-02-01T11:31:26Z</time>
      </trkpt>
      <trkpt lat="56.91299371168" lon="14.877908123075">
        <ele>162.6</ele>
        <time>2020-02-01T11:31:28Z</time>
      </trkpt>
      <trkpt lat="56.9129501258" lon="14.87797140642">
        <ele>162.8</ele>
        <time>2020-02-01T11:31:31Z</time>
      </trkpt>
      <trkpt lat="56.912897152192" lon="14.87803594705">
        <ele>162</ele>
        <time>2020-02-01T11:31:34Z</time>
      </trkpt>
      <trkpt lat="56.912842083109" lon="14.878095877635">
        <ele>163.4</ele>
        <time>2020-02-01T11:31:37Z</time>
      </trkpt>
      <trkpt lat="56.91280511893" lon="14.878132422719">
        <ele>162.6</ele>
        <time>2020-02-01T11:31:39Z</time>
      </trkpt>
      <trkpt lat="56.912776955746" lon="14.878226383818">
        <ele>162.2</ele>
        <time>2020-02-01T11:31:42Z</time>
      </trkpt>
      <trkpt lat="56.912760778679" lon="14.878303916393">
        <ele>162.2</ele>
        <time>2020-02-01T11:31:44Z</time>
      </trkpt>
      <trkpt lat="56.912744517793" lon="14.878650759415">
        <ele>162.2</ele>
        <time>2020-02-01T11:31:53Z</time>
      </trkpt>
      <trkpt lat="56.9127405783" lon="14.878780008313">
        <ele>162.2</ele>
        <time>2020-02-01T11:31:56Z</time>
      </trkpt>
      <trkpt lat="56.912739069558" lon="14.87883809488">
        <ele>162.2</ele>
        <time>2020-02-01T11:31:58Z</time>
      </trkpt>
      <trkpt lat="56.91273135821" lon="14.878963069009">
        <ele>163</ele>
        <time>2020-02-01T11:32:02Z</time>
      </trkpt>
      <trkpt lat="56.912712834211" lon="14.879020736481">
        <ele>163</ele>
        <time>2020-02-01T11:32:04Z</time>
      </trkpt>
      <trkpt lat="56.912667069037" lon="14.87913732871">
        <ele>163</ele>
        <time>2020-02-01T11:32:08Z</time>
      </trkpt>
      <trkpt lat="56.912610742669" lon="14.879189631766">
        <ele>162.6</ele>
        <time>2020-02-01T11:32:11Z</time>
      </trkpt>
      <trkpt lat="56.912471603129" lon="14.879432203952">
        <ele>162.6</ele>
        <time>2020-02-01T11:32:19Z</time>
      </trkpt>
      <trkpt lat="56.912421479367" lon="14.879495487297">
        <ele>162.6</ele>
        <time>2020-02-01T11:32:22Z</time>
      </trkpt>
      <trkpt lat="56.912319555463" lon="14.879647367325">
        <ele>162.2</ele>
        <time>2020-02-01T11:32:29Z</time>
      </trkpt>
      <trkpt lat="56.912260882163" lon="14.879772425273">
        <ele>162.2</ele>
        <time>2020-02-01T11:32:34Z</time>
      </trkpt>
      <trkpt lat="56.912140685717" lon="14.880044501747">
        <ele>162.6</ele>
        <time>2020-02-01T11:32:42Z</time>
      </trkpt>
      <trkpt lat="56.91201302938" lon="14.880297048394">
        <ele>162.8</ele>
        <time>2020-02-01T11:32:51Z</time>
      </trkpt>
      <trkpt lat="56.911979837056" lon="14.88045161063">
        <ele>162.6</ele>
        <time>2020-02-01T11:32:55Z</time>
      </trkpt>
      <trkpt lat="56.911953769347" lon="14.880538028019">
        <ele>162.4</ele>
        <time>2020-02-01T11:32:58Z</time>
      </trkpt>
      <trkpt lat="56.911920157928" lon="14.880895767511">
        <ele>163.4</ele>
        <time>2020-02-01T11:33:08Z</time>
      </trkpt>
      <trkpt lat="56.911934323339" lon="14.881265660758">
        <ele>163.4</ele>
        <time>2020-02-01T11:33:17Z</time>
      </trkpt>
      <trkpt lat="56.911943794886" lon="14.881375798924">
        <ele>163</ele>
        <time>2020-02-01T11:33:19Z</time>
      </trkpt>
      <trkpt lat="56.911983860368" lon="14.881689198165">
        <ele>163</ele>
        <time>2020-02-01T11:33:27Z</time>
      </trkpt>
      <trkpt lat="56.912007497326" lon="14.88199890937">
        <ele>162.8</ele>
        <time>2020-02-01T11:33:36Z</time>
      </trkpt>
      <trkpt lat="56.912026272782" lon="14.882158249289">
        <ele>162.4</ele>
        <time>2020-02-01T11:33:40Z</time>
      </trkpt>
      <trkpt lat="56.912032810664" lon="14.882278613373">
        <ele>161.8</ele>
        <time>2020-02-01T11:33:43Z</time>
      </trkpt>
      <trkpt lat="56.912023422936" lon="14.882365785133">
        <ele>162</ele>
        <time>2020-02-01T11:33:45Z</time>
      </trkpt>
      <trkpt lat="56.91206080621" lon="14.882454465635">
        <ele>162</ele>
        <time>2020-02-01T11:33:48Z</time>
      </trkpt>
      <trkpt lat="56.912066338264" lon="14.882571728416">
        <ele>162.4</ele>
        <time>2020-02-01T11:33:52Z</time>
      </trkpt>
      <trkpt lat="56.912099614407" lon="14.882625624033">
        <ele>162.6</ele>
        <time>2020-02-01T11:33:55Z</time>
      </trkpt>
      <trkpt lat="56.912144373753" lon="14.88266610861">
        <ele>162.4</ele>
        <time>2020-02-01T11:33:58Z</time>
      </trkpt>
      <trkpt lat="56.912204723433" lon="14.882733331448">
        <ele>162.8</ele>
        <time>2020-02-01T11:34:04Z</time>
      </trkpt>
      <trkpt lat="56.912228025115" lon="14.88279518987">
        <ele>162.4</ele>
        <time>2020-02-01T11:34:07Z</time>
      </trkpt>
      <trkpt lat="56.91224353163" lon="14.882841625596">
        <ele>162.4</ele>
        <time>2020-02-01T11:34:09Z</time>
      </trkpt>
      <trkpt lat="56.91225610448" lon="14.882908680796">
        <ele>162.2</ele>
        <time>2020-02-01T11:34:11Z</time>
      </trkpt>
      <trkpt lat="56.912270102253" lon="14.883008844501">
        <ele>161.8</ele>
        <time>2020-02-01T11:34:14Z</time>
      </trkpt>
      <trkpt lat="56.912307401708" lon="14.883049664354">
        <ele>161.6</ele>
        <time>2020-02-01T11:34:17Z</time>
      </trkpt>
      <trkpt lat="56.91237009832" lon="14.883144296005">
        <ele>161.8</ele>
        <time>2020-02-01T11:34:21Z</time>
      </trkpt>
      <trkpt lat="56.912389125233" lon="14.88318913917">
        <ele>161.8</ele>
        <time>2020-02-01T11:34:23Z</time>
      </trkpt>
      <trkpt lat="56.912395830753" lon="14.883269270134">
        <ele>162</ele>
        <time>2020-02-01T11:34:26Z</time>
      </trkpt>
      <trkpt lat="56.912418126607" lon="14.883337331162">
        <ele>162.2</ele>
        <time>2020-02-01T11:34:29Z</time>
      </trkpt>
      <trkpt lat="56.912446122153" lon="14.883389550399">
        <ele>162.2</ele>
        <time>2020-02-01T11:34:31Z</time>
      </trkpt>
      <trkpt lat="56.912519128502" lon="14.883715438671">
        <ele>162</ele>
        <time>2020-02-01T11:34:41Z</time>
      </trkpt>
      <trkpt lat="56.912648293581" lon="14.883976283399">
        <ele>161.8</ele>
        <time>2020-02-01T11:34:49Z</time>
      </trkpt>
      <trkpt lat="56.91263245179" lon="14.884029592283">
        <ele>161.6</ele>
        <time>2020-02-01T11:34:51Z</time>
      </trkpt>
      <trkpt lat="56.912631110686" lon="14.884176610809">
        <ele>162.6</ele>
        <time>2020-02-01T11:34:56Z</time>
      </trkpt>
      <trkpt lat="56.912636810378" lon="14.884210557504">
        <ele>163.2</ele>
        <time>2020-02-01T11:34:58Z</time>
      </trkpt>
      <trkpt lat="56.912642258613" lon="14.884227488942">
        <ele>163.4</ele>
        <time>2020-02-01T11:34:59Z</time>
      </trkpt>
      <trkpt lat="56.912637313292" lon="14.884255484488">
        <ele>163.4</ele>
        <time>2020-02-01T11:35:00Z</time>
      </trkpt>
      <trkpt lat="56.912606635538" lon="14.884328407018">
        <ele>162.8</ele>
        <time>2020-02-01T11:35:03Z</time>
      </trkpt>
      <trkpt lat="56.912543352193" lon="14.884385068662">
        <ele>162.6</ele>
        <time>2020-02-01T11:35:08Z</time>
      </trkpt>
      <trkpt lat="56.912509489317" lon="14.88441624933">
        <ele>162.4</ele>
        <time>2020-02-01T11:35:10Z</time>
      </trkpt>
      <trkpt lat="56.912488869843" lon="14.884437455537">
        <ele>162.4</ele>
        <time>2020-02-01T11:35:11Z</time>
      </trkpt>
      <trkpt lat="56.912447547076" lon="14.884438712822">
        <ele>162.4</ele>
        <time>2020-02-01T11:35:13Z</time>
      </trkpt>
      <trkpt lat="56.912301869654" lon="14.884502918176">
        <ele>162.4</ele>
        <time>2020-02-01T11:35:21Z</time>
      </trkpt>
      <trkpt lat="56.912298433075" lon="14.884573493774">
        <ele>162.4</ele>
        <time>2020-02-01T11:35:23Z</time>
      </trkpt>
      <trkpt lat="56.912320058377" lon="14.884823442032">
        <ele>162.6</ele>
        <time>2020-02-01T11:35:30Z</time>
      </trkpt>
      <trkpt lat="56.912309664821" lon="14.884922348452">
        <ele>162.8</ele>
        <time>2020-02-01T11:35:33Z</time>
      </trkpt>
      <trkpt lat="56.912239675956" lon="14.885006838004">
        <ele>163.6</ele>
        <time>2020-02-01T11:35:38Z</time>
      </trkpt>
      <trkpt lat="56.912042198392" lon="14.885124603699">
        <ele>164.2</ele>
        <time>2020-02-01T11:35:48Z</time>
      </trkpt>
      <trkpt lat="56.911982686902" lon="14.885146480458">
        <ele>164.8</ele>
        <time>2020-02-01T11:35:50Z</time>
      </trkpt>
      <trkpt lat="56.911804822984" lon="14.885235580055">
        <ele>164.8</ele>
        <time>2020-02-01T11:35:58Z</time>
      </trkpt>
      <trkpt lat="56.911607261601" lon="14.885197693867">
        <ele>164.2</ele>
        <time>2020-02-01T11:36:06Z</time>
      </trkpt>
      <trkpt lat="56.911420177593" lon="14.885154024168">
        <ele>164.6</ele>
        <time>2020-02-01T11:36:15Z</time>
      </trkpt>
      <trkpt lat="56.911218173803" lon="14.885091998108">
        <ele>164.2</ele>
        <time>2020-02-01T11:36:24Z</time>
      </trkpt>
      <trkpt lat="56.911152543526" lon="14.885092920117">
        <ele>163.6</ele>
        <time>2020-02-01T11:36:27Z</time>
      </trkpt>
      <trkpt lat="56.911052547459" lon="14.885063583467">
        <ele>162.6</ele>
        <time>2020-02-01T11:36:33Z</time>
      </trkpt>
      <trkpt lat="56.911010470321" lon="14.88507003753">
        <ele>162.6</ele>
        <time>2020-02-01T11:36:35Z</time>
      </trkpt>
      <trkpt lat="56.910898069042" lon="14.885051094436">
        <ele>162.4</ele>
        <time>2020-02-01T11:36:40Z</time>
      </trkpt>
      <trkpt lat="56.910870660229" lon="14.885026870745">
        <ele>162.6</ele>
        <time>2020-02-01T11:36:41Z</time>
      </trkpt>
      <trkpt lat="56.910809137083" lon="14.884997450276">
        <ele>162.8</ele>
        <time>2020-02-01T11:36:43Z</time>
      </trkpt>
      <trkpt lat="56.910629932061" lon="14.884929556886">
        <ele>162.2</ele>
        <time>2020-02-01T11:36:49Z</time>
      </trkpt>
      <trkpt lat="56.910509819434" lon="14.884952271835">
        <ele>162.2</ele>
        <time>2020-02-01T11:36:55Z</time>
      </trkpt>
      <trkpt lat="56.91043471761" lon="14.884974567689">
        <ele>162.2</ele>
        <time>2020-02-01T11:36:59Z</time>
      </trkpt>
      <trkpt lat="56.910262218108" lon="14.885034582093">
        <ele>162.8</ele>
        <time>2020-02-01T11:37:10Z</time>
      </trkpt>
      <trkpt lat="56.910205305007" lon="14.885097362524">
        <ele>163.6</ele>
        <time>2020-02-01T11:37:13Z</time>
      </trkpt>
      <trkpt lat="56.910079995602" lon="14.885056961766">
        <ele>163.4</ele>
        <time>2020-02-01T11:37:19Z</time>
      </trkpt>
      <trkpt lat="56.910051245685" lon="14.885099793275">
        <ele>163.4</ele>
        <time>2020-02-01T11:37:21Z</time>
      </trkpt>
      <trkpt lat="56.910033895152" lon="14.885191658899">
        <ele>163.8</ele>
        <time>2020-02-01T11:37:24Z</time>
      </trkpt>
      <trkpt lat="56.909967342866" lon="14.885337923054">
        <ele>164.6</ele>
        <time>2020-02-01T11:37:29Z</time>
      </trkpt>
      <trkpt lat="56.909819234693" lon="14.885538334283">
        <ele>163.8</ele>
        <time>2020-02-01T11:37:36Z</time>
      </trkpt>
      <trkpt lat="56.909646064639" lon="14.88570622374">
        <ele>164.2</ele>
        <time>2020-02-01T11:37:42Z</time>
      </trkpt>
      <trkpt lat="56.909483623417" lon="14.885862462356">
        <ele>165.2</ele>
        <time>2020-02-01T11:37:48Z</time>
      </trkpt>
      <trkpt lat="56.909315398684" lon="14.886009564701">
        <ele>165</ele>
        <time>2020-02-01T11:37:54Z</time>
      </trkpt>
      <trkpt lat="56.909196878618" lon="14.886134706468">
        <ele>165.8</ele>
        <time>2020-02-01T11:37:58Z</time>
      </trkpt>
      <trkpt lat="56.909099983854" lon="14.886231182137">
        <ele>167</ele>
        <time>2020-02-01T11:38:01Z</time>
      </trkpt>
      <trkpt lat="56.908913151303" lon="14.886349534565">
        <ele>166.2</ele>
        <time>2020-02-01T11:38:07Z</time>
      </trkpt>
      <trkpt lat="56.908723720363" lon="14.886460259464">
        <ele>166.8</ele>
        <time>2020-02-01T11:38:13Z</time>
      </trkpt>
      <trkpt lat="56.908626406504" lon="14.88652345899">
        <ele>167.8</ele>
        <time>2020-02-01T11:38:17Z</time>
      </trkpt>
      <trkpt lat="56.908629843083" lon="14.88670283165">
        <ele>167.8</ele>
        <time>2020-02-01T11:38:20Z</time>
      </trkpt>
      <trkpt lat="56.908684912166" lon="14.886779693673">
        <ele>167.2</ele>
        <time>2020-02-01T11:38:22Z</time>
      </trkpt>
      <trkpt lat="56.908854058908" lon="14.886669723145">
        <ele>166.6</ele>
        <time>2020-02-01T11:38:27Z</time>
      </trkpt>
      <trkpt lat="56.90895698864" lon="14.886577522245">
        <ele>165.8</ele>
        <time>2020-02-01T11:38:30Z</time>
      </trkpt>
      <trkpt lat="56.909125297192" lon="14.88639521592">
        <ele>165.4</ele>
        <time>2020-02-01T11:38:36Z</time>
      </trkpt>
      <trkpt lat="56.90917994718" lon="14.886270241791">
        <ele>165.2</ele>
        <time>2020-02-01T11:38:39Z</time>
      </trkpt>
      <trkpt lat="56.909167541968" lon="14.886189607913">
        <ele>165.6</ele>
        <time>2020-02-01T11:38:41Z</time>
      </trkpt>
      <trkpt lat="56.908973081888" lon="14.886249538498">
        <ele>165.6</ele>
        <time>2020-02-01T11:38:48Z</time>
      </trkpt>
      <trkpt lat="56.908799911834" lon="14.886355066619">
        <ele>166.6</ele>
        <time>2020-02-01T11:38:53Z</time>
      </trkpt>
      <trkpt lat="56.908764121121" lon="14.886387169296">
        <ele>167</ele>
        <time>2020-02-01T11:38:54Z</time>
      </trkpt>
      <trkpt lat="56.908659095914" lon="14.886488757924">
        <ele>167.4</ele>
        <time>2020-02-01T11:38:58Z</time>
      </trkpt>
      <trkpt lat="56.908647025978" lon="14.886624377066">
        <ele>167.2</ele>
        <time>2020-02-01T11:39:00Z</time>
      </trkpt>
      <trkpt lat="56.908711147513" lon="14.886756140534">
        <ele>166.8</ele>
        <time>2020-02-01T11:39:03Z</time>
      </trkpt>
      <trkpt lat="56.908794212142" lon="14.886727725893">
        <ele>165.8</ele>
        <time>2020-02-01T11:39:05Z</time>
      </trkpt>
      <trkpt lat="56.908967382196" lon="14.886585568869">
        <ele>165.2</ele>
        <time>2020-02-01T11:39:10Z</time>
      </trkpt>
      <trkpt lat="56.90910451008" lon="14.886477274721">
        <ele>165.4</ele>
        <time>2020-02-01T11:39:15Z</time>
      </trkpt>
      <trkpt lat="56.908986912023" lon="14.886610127836">
        <ele>164.8</ele>
        <time>2020-02-01T11:39:21Z</time>
      </trkpt>
    </trkseg>
  </trk>
</gpx>